<?xml version="1.0" encoding="UTF-8" standalone="no" ?>
<gpx xmlns="http://www.topografix.com/GPX/1/1" xmlns:xsi="http://www.w3.org/2001/XMLSchema-instance" xsi:schemaLocation="http://www.topografix.com/GPX/1/1 http://www.topografix.com/GPX/1/1/gpx.xsd" version="1.1" creator="VisuGPX - https://www.visugpx.com">
  <metadata>
    <name>6,5 km - Boucle sur le site minier 9 bis à Oignies</name>
    <desc><![CDATA[6,5 km - Boucle sur le site minier 9 bis à Oignies]]></desc>
  </metadata>
  <trk>
    <name><![CDATA[14-SEP-25 18:26:46]]></name>
    <trkseg>
      <trkpt lat="50.46006" lon="2.9881">
        <ele>27.9</ele>
        <time>2025-09-14T13:34:40Z</time>
      </trkpt>
      <trkpt lat="50.46007" lon="2.98809">
        <ele>27.9</ele>
        <time>2025-09-14T13:34:53Z</time>
      </trkpt>
      <trkpt lat="50.46007" lon="2.98808">
        <ele>27.9</ele>
        <time>2025-09-14T13:35:01Z</time>
      </trkpt>
      <trkpt lat="50.46007" lon="2.98808">
        <ele>27.9</ele>
        <time>2025-09-14T13:35:10Z</time>
      </trkpt>
      <trkpt lat="50.46007" lon="2.98809">
        <ele>27.9</ele>
        <time>2025-09-14T13:35:16Z</time>
      </trkpt>
      <trkpt lat="50.46007" lon="2.98809">
        <ele>27.9</ele>
        <time>2025-09-14T13:35:26Z</time>
      </trkpt>
      <trkpt lat="50.46007" lon="2.98808">
        <ele>27.9</ele>
        <time>2025-09-14T13:35:41Z</time>
      </trkpt>
      <trkpt lat="50.46007" lon="2.98807">
        <ele>28</ele>
        <time>2025-09-14T13:35:50Z</time>
      </trkpt>
      <trkpt lat="50.46007" lon="2.98803">
        <ele>28</ele>
        <time>2025-09-14T13:35:54Z</time>
      </trkpt>
      <trkpt lat="50.46011" lon="2.98791">
        <ele>28</ele>
        <time>2025-09-14T13:36:02Z</time>
      </trkpt>
      <trkpt lat="50.46011" lon="2.9879">
        <ele>28</ele>
        <time>2025-09-14T13:36:03Z</time>
      </trkpt>
      <trkpt lat="50.46012" lon="2.98781">
        <ele>28</ele>
        <time>2025-09-14T13:36:08Z</time>
      </trkpt>
      <trkpt lat="50.46015" lon="2.98769">
        <ele>28</ele>
        <time>2025-09-14T13:36:15Z</time>
      </trkpt>
      <trkpt lat="50.46016" lon="2.98766">
        <ele>28</ele>
        <time>2025-09-14T13:36:17Z</time>
      </trkpt>
      <trkpt lat="50.46019" lon="2.98751">
        <ele>28</ele>
        <time>2025-09-14T13:36:25Z</time>
      </trkpt>
      <trkpt lat="50.46023" lon="2.98737">
        <ele>28.1</ele>
        <time>2025-09-14T13:36:34Z</time>
      </trkpt>
      <trkpt lat="50.46023" lon="2.98735">
        <ele>28.1</ele>
        <time>2025-09-14T13:36:35Z</time>
      </trkpt>
      <trkpt lat="50.46024" lon="2.98725">
        <ele>28.1</ele>
        <time>2025-09-14T13:36:41Z</time>
      </trkpt>
      <trkpt lat="50.46027" lon="2.98719">
        <ele>28.1</ele>
        <time>2025-09-14T13:36:48Z</time>
      </trkpt>
      <trkpt lat="50.46028" lon="2.98719">
        <ele>28.1</ele>
        <time>2025-09-14T13:36:49Z</time>
      </trkpt>
      <trkpt lat="50.46038" lon="2.98725">
        <ele>28</ele>
        <time>2025-09-14T13:36:59Z</time>
      </trkpt>
      <trkpt lat="50.46045" lon="2.98728">
        <ele>28</ele>
        <time>2025-09-14T13:37:06Z</time>
      </trkpt>
      <trkpt lat="50.46054" lon="2.98732">
        <ele>28</ele>
        <time>2025-09-14T13:37:15Z</time>
      </trkpt>
      <trkpt lat="50.4606" lon="2.98735">
        <ele>28.1</ele>
        <time>2025-09-14T13:37:22Z</time>
      </trkpt>
      <trkpt lat="50.46062" lon="2.98736">
        <ele>28.1</ele>
        <time>2025-09-14T13:37:24Z</time>
      </trkpt>
      <trkpt lat="50.4607" lon="2.98738">
        <ele>28.2</ele>
        <time>2025-09-14T13:37:33Z</time>
      </trkpt>
      <trkpt lat="50.46075" lon="2.98742">
        <ele>28.2</ele>
        <time>2025-09-14T13:37:38Z</time>
      </trkpt>
      <trkpt lat="50.46081" lon="2.98745">
        <ele>28.2</ele>
        <time>2025-09-14T13:37:43Z</time>
      </trkpt>
      <trkpt lat="50.46086" lon="2.98746">
        <ele>28.2</ele>
        <time>2025-09-14T13:37:51Z</time>
      </trkpt>
      <trkpt lat="50.46086" lon="2.98747">
        <ele>28.1</ele>
        <time>2025-09-14T13:37:54Z</time>
      </trkpt>
      <trkpt lat="50.46088" lon="2.98747">
        <ele>28.1</ele>
        <time>2025-09-14T13:37:57Z</time>
      </trkpt>
      <trkpt lat="50.46095" lon="2.98749">
        <ele>28</ele>
        <time>2025-09-14T13:38:04Z</time>
      </trkpt>
      <trkpt lat="50.46097" lon="2.9875">
        <ele>28</ele>
        <time>2025-09-14T13:38:10Z</time>
      </trkpt>
      <trkpt lat="50.46097" lon="2.9875">
        <ele>28</ele>
        <time>2025-09-14T13:38:18Z</time>
      </trkpt>
      <trkpt lat="50.46097" lon="2.98752">
        <ele>28</ele>
        <time>2025-09-14T13:38:29Z</time>
      </trkpt>
      <trkpt lat="50.46097" lon="2.98751">
        <ele>28</ele>
        <time>2025-09-14T13:38:34Z</time>
      </trkpt>
      <trkpt lat="50.461" lon="2.9875">
        <ele>28</ele>
        <time>2025-09-14T13:38:39Z</time>
      </trkpt>
      <trkpt lat="50.461" lon="2.9875">
        <ele>28</ele>
        <time>2025-09-14T13:38:45Z</time>
      </trkpt>
      <trkpt lat="50.46095" lon="2.98747">
        <ele>28.1</ele>
        <time>2025-09-14T13:39:00Z</time>
      </trkpt>
      <trkpt lat="50.46092" lon="2.98743">
        <ele>28.3</ele>
        <time>2025-09-14T13:39:16Z</time>
      </trkpt>
      <trkpt lat="50.46092" lon="2.98744">
        <ele>28.2</ele>
        <time>2025-09-14T13:39:28Z</time>
      </trkpt>
      <trkpt lat="50.46093" lon="2.98745">
        <ele>28.2</ele>
        <time>2025-09-14T13:39:39Z</time>
      </trkpt>
      <trkpt lat="50.46093" lon="2.98745">
        <ele>28.2</ele>
        <time>2025-09-14T13:39:51Z</time>
      </trkpt>
      <trkpt lat="50.46094" lon="2.98745">
        <ele>28.2</ele>
        <time>2025-09-14T13:39:59Z</time>
      </trkpt>
      <trkpt lat="50.46094" lon="2.98744">
        <ele>28.2</ele>
        <time>2025-09-14T13:40:10Z</time>
      </trkpt>
      <trkpt lat="50.46095" lon="2.98739">
        <ele>28.4</ele>
        <time>2025-09-14T13:40:17Z</time>
      </trkpt>
      <trkpt lat="50.46097" lon="2.98737">
        <ele>28.5</ele>
        <time>2025-09-14T13:40:20Z</time>
      </trkpt>
      <trkpt lat="50.46105" lon="2.9874">
        <ele>28.3</ele>
        <time>2025-09-14T13:40:26Z</time>
      </trkpt>
      <trkpt lat="50.46111" lon="2.98745">
        <ele>28.2</ele>
        <time>2025-09-14T13:40:32Z</time>
      </trkpt>
      <trkpt lat="50.46118" lon="2.98756">
        <ele>28</ele>
        <time>2025-09-14T13:40:41Z</time>
      </trkpt>
      <trkpt lat="50.46125" lon="2.98763">
        <ele>28</ele>
        <time>2025-09-14T13:40:48Z</time>
      </trkpt>
      <trkpt lat="50.46128" lon="2.98765">
        <ele>28</ele>
        <time>2025-09-14T13:40:58Z</time>
      </trkpt>
      <trkpt lat="50.46134" lon="2.9876">
        <ele>28</ele>
        <time>2025-09-14T13:41:08Z</time>
      </trkpt>
      <trkpt lat="50.46135" lon="2.9876">
        <ele>28</ele>
        <time>2025-09-14T13:41:14Z</time>
      </trkpt>
      <trkpt lat="50.46138" lon="2.98759">
        <ele>28</ele>
        <time>2025-09-14T13:41:18Z</time>
      </trkpt>
      <trkpt lat="50.46139" lon="2.98755">
        <ele>28</ele>
        <time>2025-09-14T13:41:21Z</time>
      </trkpt>
      <trkpt lat="50.46144" lon="2.98738">
        <ele>28</ele>
        <time>2025-09-14T13:41:31Z</time>
      </trkpt>
      <trkpt lat="50.46146" lon="2.9873">
        <ele>28</ele>
        <time>2025-09-14T13:41:35Z</time>
      </trkpt>
      <trkpt lat="50.46149" lon="2.98719">
        <ele>28</ele>
        <time>2025-09-14T13:41:42Z</time>
      </trkpt>
      <trkpt lat="50.46149" lon="2.98707">
        <ele>28</ele>
        <time>2025-09-14T13:41:48Z</time>
      </trkpt>
      <trkpt lat="50.46153" lon="2.987">
        <ele>28</ele>
        <time>2025-09-14T13:41:55Z</time>
      </trkpt>
      <trkpt lat="50.46155" lon="2.9869">
        <ele>28.1</ele>
        <time>2025-09-14T13:42:02Z</time>
      </trkpt>
      <trkpt lat="50.46157" lon="2.98675">
        <ele>28.2</ele>
        <time>2025-09-14T13:42:12Z</time>
      </trkpt>
      <trkpt lat="50.46159" lon="2.98671">
        <ele>28.2</ele>
        <time>2025-09-14T13:42:20Z</time>
      </trkpt>
      <trkpt lat="50.46159" lon="2.98667">
        <ele>28.3</ele>
        <time>2025-09-14T13:42:23Z</time>
      </trkpt>
      <trkpt lat="50.46154" lon="2.98655">
        <ele>28.5</ele>
        <time>2025-09-14T13:42:31Z</time>
      </trkpt>
      <trkpt lat="50.46152" lon="2.98654">
        <ele>28.5</ele>
        <time>2025-09-14T13:42:32Z</time>
      </trkpt>
      <trkpt lat="50.46143" lon="2.98636">
        <ele>28.9</ele>
        <time>2025-09-14T13:42:42Z</time>
      </trkpt>
      <trkpt lat="50.46141" lon="2.98629">
        <ele>28.9</ele>
        <time>2025-09-14T13:42:49Z</time>
      </trkpt>
      <trkpt lat="50.46141" lon="2.98628">
        <ele>28.9</ele>
        <time>2025-09-14T13:42:51Z</time>
      </trkpt>
      <trkpt lat="50.46138" lon="2.98625">
        <ele>29</ele>
        <time>2025-09-14T13:42:54Z</time>
      </trkpt>
      <trkpt lat="50.46128" lon="2.98609">
        <ele>29</ele>
        <time>2025-09-14T13:43:04Z</time>
      </trkpt>
      <trkpt lat="50.46118" lon="2.98598">
        <ele>28.6</ele>
        <time>2025-09-14T13:43:13Z</time>
      </trkpt>
      <trkpt lat="50.4611" lon="2.98591">
        <ele>28.3</ele>
        <time>2025-09-14T13:43:21Z</time>
      </trkpt>
      <trkpt lat="50.4611" lon="2.98591">
        <ele>28.3</ele>
        <time>2025-09-14T13:43:23Z</time>
      </trkpt>
      <trkpt lat="50.46107" lon="2.98582">
        <ele>28.2</ele>
        <time>2025-09-14T13:43:29Z</time>
      </trkpt>
      <trkpt lat="50.46105" lon="2.98576">
        <ele>28.2</ele>
        <time>2025-09-14T13:43:34Z</time>
      </trkpt>
      <trkpt lat="50.46104" lon="2.98575">
        <ele>28.2</ele>
        <time>2025-09-14T13:43:41Z</time>
      </trkpt>
      <trkpt lat="50.46105" lon="2.98576">
        <ele>28.2</ele>
        <time>2025-09-14T13:43:56Z</time>
      </trkpt>
      <trkpt lat="50.46104" lon="2.98576">
        <ele>28.2</ele>
        <time>2025-09-14T13:44:06Z</time>
      </trkpt>
      <trkpt lat="50.46104" lon="2.98576">
        <ele>28.2</ele>
        <time>2025-09-14T13:44:21Z</time>
      </trkpt>
      <trkpt lat="50.46103" lon="2.98575">
        <ele>28.2</ele>
        <time>2025-09-14T13:44:30Z</time>
      </trkpt>
      <trkpt lat="50.46103" lon="2.98574">
        <ele>28.2</ele>
        <time>2025-09-14T13:44:35Z</time>
      </trkpt>
      <trkpt lat="50.46101" lon="2.9856">
        <ele>28.1</ele>
        <time>2025-09-14T13:44:42Z</time>
      </trkpt>
      <trkpt lat="50.461" lon="2.98547">
        <ele>28.1</ele>
        <time>2025-09-14T13:44:48Z</time>
      </trkpt>
      <trkpt lat="50.46098" lon="2.98536">
        <ele>28.3</ele>
        <time>2025-09-14T13:44:55Z</time>
      </trkpt>
      <trkpt lat="50.46098" lon="2.98532">
        <ele>28.4</ele>
        <time>2025-09-14T13:45:00Z</time>
      </trkpt>
      <trkpt lat="50.461" lon="2.98528">
        <ele>28.4</ele>
        <time>2025-09-14T13:45:04Z</time>
      </trkpt>
      <trkpt lat="50.46105" lon="2.98516">
        <ele>28.4</ele>
        <time>2025-09-14T13:45:11Z</time>
      </trkpt>
      <trkpt lat="50.46109" lon="2.98506">
        <ele>28.2</ele>
        <time>2025-09-14T13:45:17Z</time>
      </trkpt>
      <trkpt lat="50.46117" lon="2.98487">
        <ele>28.4</ele>
        <time>2025-09-14T13:45:26Z</time>
      </trkpt>
      <trkpt lat="50.46125" lon="2.98486">
        <ele>27.7</ele>
        <time>2025-09-14T13:45:33Z</time>
      </trkpt>
      <trkpt lat="50.46133" lon="2.98486">
        <ele>27.1</ele>
        <time>2025-09-14T13:45:40Z</time>
      </trkpt>
      <trkpt lat="50.46133" lon="2.98485">
        <ele>27</ele>
        <time>2025-09-14T13:45:41Z</time>
      </trkpt>
      <trkpt lat="50.46137" lon="2.9848">
        <ele>26.5</ele>
        <time>2025-09-14T13:45:45Z</time>
      </trkpt>
      <trkpt lat="50.46138" lon="2.98469">
        <ele>26.1</ele>
        <time>2025-09-14T13:45:53Z</time>
      </trkpt>
      <trkpt lat="50.46137" lon="2.9846">
        <ele>26.2</ele>
        <time>2025-09-14T13:45:59Z</time>
      </trkpt>
      <trkpt lat="50.4613" lon="2.98447">
        <ele>26.7</ele>
        <time>2025-09-14T13:46:07Z</time>
      </trkpt>
      <trkpt lat="50.46128" lon="2.98441">
        <ele>26.7</ele>
        <time>2025-09-14T13:46:11Z</time>
      </trkpt>
      <trkpt lat="50.46125" lon="2.98427">
        <ele>26.4</ele>
        <time>2025-09-14T13:46:16Z</time>
      </trkpt>
      <trkpt lat="50.4612" lon="2.98411">
        <ele>26.3</ele>
        <time>2025-09-14T13:46:24Z</time>
      </trkpt>
      <trkpt lat="50.46119" lon="2.984">
        <ele>26.4</ele>
        <time>2025-09-14T13:46:30Z</time>
      </trkpt>
      <trkpt lat="50.46119" lon="2.98396">
        <ele>26.5</ele>
        <time>2025-09-14T13:46:32Z</time>
      </trkpt>
      <trkpt lat="50.46117" lon="2.98378">
        <ele>26.6</ele>
        <time>2025-09-14T13:46:41Z</time>
      </trkpt>
      <trkpt lat="50.46118" lon="2.98365">
        <ele>26.5</ele>
        <time>2025-09-14T13:46:47Z</time>
      </trkpt>
      <trkpt lat="50.46119" lon="2.98355">
        <ele>26.5</ele>
        <time>2025-09-14T13:46:52Z</time>
      </trkpt>
      <trkpt lat="50.46119" lon="2.98337">
        <ele>26.4</ele>
        <time>2025-09-14T13:47:00Z</time>
      </trkpt>
      <trkpt lat="50.46115" lon="2.98326">
        <ele>27</ele>
        <time>2025-09-14T13:47:08Z</time>
      </trkpt>
      <trkpt lat="50.4611" lon="2.98315">
        <ele>27.9</ele>
        <time>2025-09-14T13:47:16Z</time>
      </trkpt>
      <trkpt lat="50.46108" lon="2.98309">
        <ele>28.6</ele>
        <time>2025-09-14T13:47:20Z</time>
      </trkpt>
      <trkpt lat="50.46102" lon="2.98306">
        <ele>30.4</ele>
        <time>2025-09-14T13:47:28Z</time>
      </trkpt>
      <trkpt lat="50.46099" lon="2.98306">
        <ele>31.1</ele>
        <time>2025-09-14T13:47:35Z</time>
      </trkpt>
      <trkpt lat="50.46096" lon="2.9831">
        <ele>31.8</ele>
        <time>2025-09-14T13:47:41Z</time>
      </trkpt>
      <trkpt lat="50.46094" lon="2.98313">
        <ele>32.2</ele>
        <time>2025-09-14T13:47:44Z</time>
      </trkpt>
      <trkpt lat="50.46092" lon="2.98321">
        <ele>33.1</ele>
        <time>2025-09-14T13:47:49Z</time>
      </trkpt>
      <trkpt lat="50.46088" lon="2.98331">
        <ele>34.6</ele>
        <time>2025-09-14T13:47:56Z</time>
      </trkpt>
      <trkpt lat="50.46084" lon="2.98341">
        <ele>35.4</ele>
        <time>2025-09-14T13:48:03Z</time>
      </trkpt>
      <trkpt lat="50.46079" lon="2.9835">
        <ele>36.3</ele>
        <time>2025-09-14T13:48:10Z</time>
      </trkpt>
      <trkpt lat="50.46076" lon="2.98353">
        <ele>37.1</ele>
        <time>2025-09-14T13:48:13Z</time>
      </trkpt>
      <trkpt lat="50.4607" lon="2.98366">
        <ele>39.2</ele>
        <time>2025-09-14T13:48:21Z</time>
      </trkpt>
      <trkpt lat="50.46067" lon="2.98368">
        <ele>40.1</ele>
        <time>2025-09-14T13:48:26Z</time>
      </trkpt>
      <trkpt lat="50.46066" lon="2.98371">
        <ele>40.6</ele>
        <time>2025-09-14T13:48:30Z</time>
      </trkpt>
      <trkpt lat="50.46069" lon="2.98391">
        <ele>41</ele>
        <time>2025-09-14T13:48:40Z</time>
      </trkpt>
      <trkpt lat="50.4607" lon="2.98411">
        <ele>40.8</ele>
        <time>2025-09-14T13:48:49Z</time>
      </trkpt>
      <trkpt lat="50.46068" lon="2.98428">
        <ele>40.3</ele>
        <time>2025-09-14T13:48:57Z</time>
      </trkpt>
      <trkpt lat="50.46066" lon="2.98445">
        <ele>39.6</ele>
        <time>2025-09-14T13:49:05Z</time>
      </trkpt>
      <trkpt lat="50.46062" lon="2.98461">
        <ele>41.5</ele>
        <time>2025-09-14T13:49:13Z</time>
      </trkpt>
      <trkpt lat="50.46058" lon="2.98476">
        <ele>41.8</ele>
        <time>2025-09-14T13:49:20Z</time>
      </trkpt>
      <trkpt lat="50.46054" lon="2.98489">
        <ele>41.7</ele>
        <time>2025-09-14T13:49:27Z</time>
      </trkpt>
      <trkpt lat="50.4604" lon="2.98501">
        <ele>42</ele>
        <time>2025-09-14T13:49:38Z</time>
      </trkpt>
      <trkpt lat="50.46032" lon="2.98505">
        <ele>42.2</ele>
        <time>2025-09-14T13:49:45Z</time>
      </trkpt>
      <trkpt lat="50.46021" lon="2.98509">
        <ele>42.4</ele>
        <time>2025-09-14T13:49:53Z</time>
      </trkpt>
      <trkpt lat="50.46009" lon="2.9851">
        <ele>42.9</ele>
        <time>2025-09-14T13:50:02Z</time>
      </trkpt>
      <trkpt lat="50.46001" lon="2.9851">
        <ele>43.9</ele>
        <time>2025-09-14T13:50:09Z</time>
      </trkpt>
      <trkpt lat="50.45995" lon="2.9851">
        <ele>43.5</ele>
        <time>2025-09-14T13:50:13Z</time>
      </trkpt>
      <trkpt lat="50.45989" lon="2.98505">
        <ele>44.1</ele>
        <time>2025-09-14T13:50:18Z</time>
      </trkpt>
      <trkpt lat="50.45986" lon="2.98504">
        <ele>44.1</ele>
        <time>2025-09-14T13:50:20Z</time>
      </trkpt>
      <trkpt lat="50.45978" lon="2.98494">
        <ele>45.5</ele>
        <time>2025-09-14T13:50:29Z</time>
      </trkpt>
      <trkpt lat="50.45969" lon="2.9848">
        <ele>45.7</ele>
        <time>2025-09-14T13:50:39Z</time>
      </trkpt>
      <trkpt lat="50.45964" lon="2.98465">
        <ele>46.1</ele>
        <time>2025-09-14T13:50:48Z</time>
      </trkpt>
      <trkpt lat="50.45959" lon="2.98448">
        <ele>46.3</ele>
        <time>2025-09-14T13:50:58Z</time>
      </trkpt>
      <trkpt lat="50.45958" lon="2.98446">
        <ele>46.3</ele>
        <time>2025-09-14T13:51:05Z</time>
      </trkpt>
      <trkpt lat="50.45959" lon="2.98446">
        <ele>46.5</ele>
        <time>2025-09-14T13:51:19Z</time>
      </trkpt>
      <trkpt lat="50.45958" lon="2.98446">
        <ele>46.3</ele>
        <time>2025-09-14T13:51:28Z</time>
      </trkpt>
      <trkpt lat="50.45959" lon="2.98443">
        <ele>46.7</ele>
        <time>2025-09-14T13:51:39Z</time>
      </trkpt>
      <trkpt lat="50.45958" lon="2.98429">
        <ele>47.2</ele>
        <time>2025-09-14T13:51:47Z</time>
      </trkpt>
      <trkpt lat="50.45959" lon="2.98414">
        <ele>47.8</ele>
        <time>2025-09-14T13:51:54Z</time>
      </trkpt>
      <trkpt lat="50.45963" lon="2.98395">
        <ele>48.1</ele>
        <time>2025-09-14T13:52:03Z</time>
      </trkpt>
      <trkpt lat="50.45971" lon="2.9838">
        <ele>49.4</ele>
        <time>2025-09-14T13:52:12Z</time>
      </trkpt>
      <trkpt lat="50.4598" lon="2.98364">
        <ele>49.4</ele>
        <time>2025-09-14T13:52:21Z</time>
      </trkpt>
      <trkpt lat="50.45981" lon="2.98362">
        <ele>49.4</ele>
        <time>2025-09-14T13:52:22Z</time>
      </trkpt>
      <trkpt lat="50.4599" lon="2.98355">
        <ele>50</ele>
        <time>2025-09-14T13:52:29Z</time>
      </trkpt>
      <trkpt lat="50.46002" lon="2.98346">
        <ele>50.7</ele>
        <time>2025-09-14T13:52:39Z</time>
      </trkpt>
      <trkpt lat="50.46011" lon="2.98346">
        <ele>50.4</ele>
        <time>2025-09-14T13:52:46Z</time>
      </trkpt>
      <trkpt lat="50.46016" lon="2.98352">
        <ele>51.4</ele>
        <time>2025-09-14T13:52:51Z</time>
      </trkpt>
      <trkpt lat="50.46013" lon="2.98359">
        <ele>53</ele>
        <time>2025-09-14T13:52:59Z</time>
      </trkpt>
      <trkpt lat="50.46009" lon="2.98364">
        <ele>54.6</ele>
        <time>2025-09-14T13:53:06Z</time>
      </trkpt>
      <trkpt lat="50.46006" lon="2.98369">
        <ele>56</ele>
        <time>2025-09-14T13:53:11Z</time>
      </trkpt>
      <trkpt lat="50.46004" lon="2.9837">
        <ele>56.5</ele>
        <time>2025-09-14T13:53:13Z</time>
      </trkpt>
      <trkpt lat="50.46001" lon="2.98377">
        <ele>58.5</ele>
        <time>2025-09-14T13:53:20Z</time>
      </trkpt>
      <trkpt lat="50.46" lon="2.9838">
        <ele>59.5</ele>
        <time>2025-09-14T13:53:23Z</time>
      </trkpt>
      <trkpt lat="50.45998" lon="2.98388">
        <ele>60.9</ele>
        <time>2025-09-14T13:53:31Z</time>
      </trkpt>
      <trkpt lat="50.45997" lon="2.9839">
        <ele>61.1</ele>
        <time>2025-09-14T13:53:33Z</time>
      </trkpt>
      <trkpt lat="50.45996" lon="2.98399">
        <ele>62.3</ele>
        <time>2025-09-14T13:53:40Z</time>
      </trkpt>
      <trkpt lat="50.45995" lon="2.98408">
        <ele>63.6</ele>
        <time>2025-09-14T13:53:47Z</time>
      </trkpt>
      <trkpt lat="50.45995" lon="2.98409">
        <ele>63.8</ele>
        <time>2025-09-14T13:53:48Z</time>
      </trkpt>
      <trkpt lat="50.45995" lon="2.98417">
        <ele>65.4</ele>
        <time>2025-09-14T13:53:54Z</time>
      </trkpt>
      <trkpt lat="50.45997" lon="2.98425">
        <ele>65.8</ele>
        <time>2025-09-14T13:54:02Z</time>
      </trkpt>
      <trkpt lat="50.45998" lon="2.98429">
        <ele>65.9</ele>
        <time>2025-09-14T13:54:05Z</time>
      </trkpt>
      <trkpt lat="50.46005" lon="2.98433">
        <ele>66</ele>
        <time>2025-09-14T13:54:13Z</time>
      </trkpt>
      <trkpt lat="50.46007" lon="2.98433">
        <ele>65.8</ele>
        <time>2025-09-14T13:54:20Z</time>
      </trkpt>
      <trkpt lat="50.46008" lon="2.98433">
        <ele>65.8</ele>
        <time>2025-09-14T13:54:27Z</time>
      </trkpt>
      <trkpt lat="50.46008" lon="2.98433">
        <ele>65.8</ele>
        <time>2025-09-14T13:54:42Z</time>
      </trkpt>
      <trkpt lat="50.46008" lon="2.98433">
        <ele>65.7</ele>
        <time>2025-09-14T13:54:58Z</time>
      </trkpt>
      <trkpt lat="50.46009" lon="2.98434">
        <ele>65.6</ele>
        <time>2025-09-14T13:55:06Z</time>
      </trkpt>
      <trkpt lat="50.46009" lon="2.98434">
        <ele>65.6</ele>
        <time>2025-09-14T13:55:14Z</time>
      </trkpt>
      <trkpt lat="50.46009" lon="2.98434">
        <ele>65.6</ele>
        <time>2025-09-14T13:55:18Z</time>
      </trkpt>
      <trkpt lat="50.46008" lon="2.98431">
        <ele>66.1</ele>
        <time>2025-09-14T13:55:20Z</time>
      </trkpt>
      <trkpt lat="50.46008" lon="2.98421">
        <ele>67.3</ele>
        <time>2025-09-14T13:55:26Z</time>
      </trkpt>
      <trkpt lat="50.46009" lon="2.98413">
        <ele>66.9</ele>
        <time>2025-09-14T13:55:33Z</time>
      </trkpt>
      <trkpt lat="50.46009" lon="2.98411">
        <ele>66.5</ele>
        <time>2025-09-14T13:55:41Z</time>
      </trkpt>
      <trkpt lat="50.4601" lon="2.98411">
        <ele>66.5</ele>
        <time>2025-09-14T13:55:55Z</time>
      </trkpt>
      <trkpt lat="50.4601" lon="2.98411">
        <ele>66.4</ele>
        <time>2025-09-14T13:56:05Z</time>
      </trkpt>
      <trkpt lat="50.46013" lon="2.9841">
        <ele>66.1</ele>
        <time>2025-09-14T13:56:13Z</time>
      </trkpt>
      <trkpt lat="50.46014" lon="2.9841">
        <ele>66.1</ele>
        <time>2025-09-14T13:56:25Z</time>
      </trkpt>
      <trkpt lat="50.46014" lon="2.9841">
        <ele>66.1</ele>
        <time>2025-09-14T13:56:38Z</time>
      </trkpt>
      <trkpt lat="50.46014" lon="2.98411">
        <ele>66.2</ele>
        <time>2025-09-14T13:56:52Z</time>
      </trkpt>
      <trkpt lat="50.46014" lon="2.98411">
        <ele>66.2</ele>
        <time>2025-09-14T13:56:53Z</time>
      </trkpt>
      <trkpt lat="50.46015" lon="2.9841">
        <ele>66.1</ele>
        <time>2025-09-14T13:57:04Z</time>
      </trkpt>
      <trkpt lat="50.46014" lon="2.9841">
        <ele>66.1</ele>
        <time>2025-09-14T13:57:06Z</time>
      </trkpt>
      <trkpt lat="50.46014" lon="2.98409">
        <ele>65.9</ele>
        <time>2025-09-14T13:57:08Z</time>
      </trkpt>
      <trkpt lat="50.46015" lon="2.98408">
        <ele>65.7</ele>
        <time>2025-09-14T13:57:26Z</time>
      </trkpt>
      <trkpt lat="50.46015" lon="2.98408">
        <ele>65.7</ele>
        <time>2025-09-14T13:57:45Z</time>
      </trkpt>
      <trkpt lat="50.46014" lon="2.98408">
        <ele>65.7</ele>
        <time>2025-09-14T13:57:56Z</time>
      </trkpt>
      <trkpt lat="50.46014" lon="2.98408">
        <ele>65.7</ele>
        <time>2025-09-14T13:58:02Z</time>
      </trkpt>
      <trkpt lat="50.46015" lon="2.98409">
        <ele>65.9</ele>
        <time>2025-09-14T13:58:10Z</time>
      </trkpt>
      <trkpt lat="50.46018" lon="2.98411">
        <ele>66.1</ele>
        <time>2025-09-14T13:58:15Z</time>
      </trkpt>
      <trkpt lat="50.46019" lon="2.98411">
        <ele>66.2</ele>
        <time>2025-09-14T13:58:16Z</time>
      </trkpt>
      <trkpt lat="50.46022" lon="2.98421">
        <ele>66.6</ele>
        <time>2025-09-14T13:58:25Z</time>
      </trkpt>
      <trkpt lat="50.46022" lon="2.98422">
        <ele>66.4</ele>
        <time>2025-09-14T13:58:32Z</time>
      </trkpt>
      <trkpt lat="50.46022" lon="2.98423">
        <ele>66.4</ele>
        <time>2025-09-14T13:58:44Z</time>
      </trkpt>
      <trkpt lat="50.46022" lon="2.98423">
        <ele>66.3</ele>
        <time>2025-09-14T13:58:53Z</time>
      </trkpt>
      <trkpt lat="50.46022" lon="2.98423">
        <ele>66.3</ele>
        <time>2025-09-14T13:59:06Z</time>
      </trkpt>
      <trkpt lat="50.46022" lon="2.98424">
        <ele>66.2</ele>
        <time>2025-09-14T13:59:16Z</time>
      </trkpt>
      <trkpt lat="50.46023" lon="2.98424">
        <ele>66.2</ele>
        <time>2025-09-14T13:59:25Z</time>
      </trkpt>
      <trkpt lat="50.46022" lon="2.98425">
        <ele>66</ele>
        <time>2025-09-14T13:59:42Z</time>
      </trkpt>
      <trkpt lat="50.46023" lon="2.98426">
        <ele>65.9</ele>
        <time>2025-09-14T13:59:53Z</time>
      </trkpt>
      <trkpt lat="50.46023" lon="2.98427">
        <ele>65.8</ele>
        <time>2025-09-14T14:00:00Z</time>
      </trkpt>
      <trkpt lat="50.46021" lon="2.9843">
        <ele>65.4</ele>
        <time>2025-09-14T14:00:06Z</time>
      </trkpt>
      <trkpt lat="50.46021" lon="2.98431">
        <ele>65.4</ele>
        <time>2025-09-14T14:00:17Z</time>
      </trkpt>
      <trkpt lat="50.46021" lon="2.98431">
        <ele>65.3</ele>
        <time>2025-09-14T14:00:31Z</time>
      </trkpt>
      <trkpt lat="50.46021" lon="2.98432">
        <ele>65.2</ele>
        <time>2025-09-14T14:00:39Z</time>
      </trkpt>
      <trkpt lat="50.4602" lon="2.98432">
        <ele>65.3</ele>
        <time>2025-09-14T14:00:49Z</time>
      </trkpt>
      <trkpt lat="50.46019" lon="2.98432">
        <ele>65.3</ele>
        <time>2025-09-14T14:00:58Z</time>
      </trkpt>
      <trkpt lat="50.46019" lon="2.98431">
        <ele>65.4</ele>
        <time>2025-09-14T14:01:10Z</time>
      </trkpt>
      <trkpt lat="50.46019" lon="2.98431">
        <ele>65.4</ele>
        <time>2025-09-14T14:01:23Z</time>
      </trkpt>
      <trkpt lat="50.46018" lon="2.98431">
        <ele>65.5</ele>
        <time>2025-09-14T14:01:38Z</time>
      </trkpt>
      <trkpt lat="50.46018" lon="2.98432">
        <ele>65.4</ele>
        <time>2025-09-14T14:01:45Z</time>
      </trkpt>
      <trkpt lat="50.46014" lon="2.98433">
        <ele>65.4</ele>
        <time>2025-09-14T14:01:52Z</time>
      </trkpt>
      <trkpt lat="50.46012" lon="2.98432">
        <ele>65.6</ele>
        <time>2025-09-14T14:02:00Z</time>
      </trkpt>
      <trkpt lat="50.46011" lon="2.98433">
        <ele>65.6</ele>
        <time>2025-09-14T14:02:07Z</time>
      </trkpt>
      <trkpt lat="50.4601" lon="2.98434">
        <ele>65.6</ele>
        <time>2025-09-14T14:02:13Z</time>
      </trkpt>
      <trkpt lat="50.46008" lon="2.98435">
        <ele>65.6</ele>
        <time>2025-09-14T14:02:21Z</time>
      </trkpt>
      <trkpt lat="50.46008" lon="2.98435">
        <ele>65.5</ele>
        <time>2025-09-14T14:02:28Z</time>
      </trkpt>
      <trkpt lat="50.46005" lon="2.98435">
        <ele>65.7</ele>
        <time>2025-09-14T14:02:32Z</time>
      </trkpt>
      <trkpt lat="50.46001" lon="2.98433">
        <ele>66.1</ele>
        <time>2025-09-14T14:02:38Z</time>
      </trkpt>
      <trkpt lat="50.46" lon="2.98431">
        <ele>66.4</ele>
        <time>2025-09-14T14:02:41Z</time>
      </trkpt>
      <trkpt lat="50.45999" lon="2.98429">
        <ele>66.3</ele>
        <time>2025-09-14T14:02:43Z</time>
      </trkpt>
      <trkpt lat="50.45997" lon="2.9842">
        <ele>65.9</ele>
        <time>2025-09-14T14:02:51Z</time>
      </trkpt>
      <trkpt lat="50.45995" lon="2.9841">
        <ele>64.2</ele>
        <time>2025-09-14T14:02:59Z</time>
      </trkpt>
      <trkpt lat="50.45994" lon="2.98409">
        <ele>63.8</ele>
        <time>2025-09-14T14:03:01Z</time>
      </trkpt>
      <trkpt lat="50.45995" lon="2.98401">
        <ele>62.2</ele>
        <time>2025-09-14T14:03:09Z</time>
      </trkpt>
      <trkpt lat="50.45997" lon="2.98393">
        <ele>61.4</ele>
        <time>2025-09-14T14:03:17Z</time>
      </trkpt>
      <trkpt lat="50.45999" lon="2.98385">
        <ele>60.7</ele>
        <time>2025-09-14T14:03:25Z</time>
      </trkpt>
      <trkpt lat="50.46002" lon="2.98378">
        <ele>58.8</ele>
        <time>2025-09-14T14:03:33Z</time>
      </trkpt>
      <trkpt lat="50.46007" lon="2.9837">
        <ele>56.2</ele>
        <time>2025-09-14T14:03:42Z</time>
      </trkpt>
      <trkpt lat="50.46009" lon="2.98362">
        <ele>53.8</ele>
        <time>2025-09-14T14:03:50Z</time>
      </trkpt>
      <trkpt lat="50.46012" lon="2.9836">
        <ele>53.2</ele>
        <time>2025-09-14T14:03:54Z</time>
      </trkpt>
      <trkpt lat="50.46014" lon="2.98358">
        <ele>52.8</ele>
        <time>2025-09-14T14:03:57Z</time>
      </trkpt>
      <trkpt lat="50.4602" lon="2.98355">
        <ele>52</ele>
        <time>2025-09-14T14:04:03Z</time>
      </trkpt>
      <trkpt lat="50.46021" lon="2.9835">
        <ele>50.8</ele>
        <time>2025-09-14T14:04:09Z</time>
      </trkpt>
      <trkpt lat="50.46019" lon="2.98345">
        <ele>49.9</ele>
        <time>2025-09-14T14:04:16Z</time>
      </trkpt>
      <trkpt lat="50.46019" lon="2.98345">
        <ele>49.9</ele>
        <time>2025-09-14T14:04:26Z</time>
      </trkpt>
      <trkpt lat="50.46019" lon="2.98345">
        <ele>49.9</ele>
        <time>2025-09-14T14:04:36Z</time>
      </trkpt>
      <trkpt lat="50.46016" lon="2.98343">
        <ele>49.5</ele>
        <time>2025-09-14T14:04:43Z</time>
      </trkpt>
      <trkpt lat="50.46014" lon="2.98344">
        <ele>49.8</ele>
        <time>2025-09-14T14:04:49Z</time>
      </trkpt>
      <trkpt lat="50.46009" lon="2.98344">
        <ele>49.9</ele>
        <time>2025-09-14T14:04:56Z</time>
      </trkpt>
      <trkpt lat="50.46003" lon="2.98346">
        <ele>50.6</ele>
        <time>2025-09-14T14:05:04Z</time>
      </trkpt>
      <trkpt lat="50.46002" lon="2.98346">
        <ele>50.7</ele>
        <time>2025-09-14T14:05:06Z</time>
      </trkpt>
      <trkpt lat="50.45999" lon="2.98346">
        <ele>50.5</ele>
        <time>2025-09-14T14:05:11Z</time>
      </trkpt>
      <trkpt lat="50.45998" lon="2.98345">
        <ele>50</ele>
        <time>2025-09-14T14:05:23Z</time>
      </trkpt>
      <trkpt lat="50.45998" lon="2.98344">
        <ele>49.8</ele>
        <time>2025-09-14T14:05:38Z</time>
      </trkpt>
      <trkpt lat="50.45998" lon="2.98344">
        <ele>49.8</ele>
        <time>2025-09-14T14:05:48Z</time>
      </trkpt>
      <trkpt lat="50.45998" lon="2.98345">
        <ele>49.9</ele>
        <time>2025-09-14T14:06:00Z</time>
      </trkpt>
      <trkpt lat="50.45997" lon="2.98346">
        <ele>50.1</ele>
        <time>2025-09-14T14:06:02Z</time>
      </trkpt>
      <trkpt lat="50.45988" lon="2.98357">
        <ele>50</ele>
        <time>2025-09-14T14:06:12Z</time>
      </trkpt>
      <trkpt lat="50.45987" lon="2.98358">
        <ele>49.9</ele>
        <time>2025-09-14T14:06:13Z</time>
      </trkpt>
      <trkpt lat="50.45981" lon="2.98365">
        <ele>50</ele>
        <time>2025-09-14T14:06:19Z</time>
      </trkpt>
      <trkpt lat="50.45976" lon="2.98372">
        <ele>49.7</ele>
        <time>2025-09-14T14:06:25Z</time>
      </trkpt>
      <trkpt lat="50.45972" lon="2.98377">
        <ele>49.2</ele>
        <time>2025-09-14T14:06:30Z</time>
      </trkpt>
      <trkpt lat="50.45967" lon="2.98387">
        <ele>48.7</ele>
        <time>2025-09-14T14:06:36Z</time>
      </trkpt>
      <trkpt lat="50.45961" lon="2.98399">
        <ele>47.7</ele>
        <time>2025-09-14T14:06:44Z</time>
      </trkpt>
      <trkpt lat="50.45959" lon="2.98412">
        <ele>47.7</ele>
        <time>2025-09-14T14:06:52Z</time>
      </trkpt>
      <trkpt lat="50.45958" lon="2.98427">
        <ele>47.1</ele>
        <time>2025-09-14T14:07:00Z</time>
      </trkpt>
      <trkpt lat="50.45958" lon="2.98432">
        <ele>46.9</ele>
        <time>2025-09-14T14:07:03Z</time>
      </trkpt>
      <trkpt lat="50.45959" lon="2.98446">
        <ele>46.8</ele>
        <time>2025-09-14T14:07:11Z</time>
      </trkpt>
      <trkpt lat="50.45962" lon="2.98456">
        <ele>46.3</ele>
        <time>2025-09-14T14:07:17Z</time>
      </trkpt>
      <trkpt lat="50.45962" lon="2.98458">
        <ele>46.3</ele>
        <time>2025-09-14T14:07:18Z</time>
      </trkpt>
      <trkpt lat="50.45963" lon="2.98462">
        <ele>45.9</ele>
        <time>2025-09-14T14:07:21Z</time>
      </trkpt>
      <trkpt lat="50.45965" lon="2.98468">
        <ele>46</ele>
        <time>2025-09-14T14:07:24Z</time>
      </trkpt>
      <trkpt lat="50.45968" lon="2.98474">
        <ele>46.3</ele>
        <time>2025-09-14T14:07:29Z</time>
      </trkpt>
      <trkpt lat="50.45969" lon="2.98479">
        <ele>46</ele>
        <time>2025-09-14T14:07:32Z</time>
      </trkpt>
      <trkpt lat="50.45977" lon="2.9849">
        <ele>46.1</ele>
        <time>2025-09-14T14:07:41Z</time>
      </trkpt>
      <trkpt lat="50.45982" lon="2.98497">
        <ele>45.3</ele>
        <time>2025-09-14T14:07:47Z</time>
      </trkpt>
      <trkpt lat="50.45986" lon="2.98501">
        <ele>44.8</ele>
        <time>2025-09-14T14:07:51Z</time>
      </trkpt>
      <trkpt lat="50.45994" lon="2.98505">
        <ele>44.4</ele>
        <time>2025-09-14T14:07:58Z</time>
      </trkpt>
      <trkpt lat="50.46006" lon="2.98508">
        <ele>43.7</ele>
        <time>2025-09-14T14:08:08Z</time>
      </trkpt>
      <trkpt lat="50.4602" lon="2.98508">
        <ele>42.6</ele>
        <time>2025-09-14T14:08:18Z</time>
      </trkpt>
      <trkpt lat="50.46029" lon="2.98505">
        <ele>42.5</ele>
        <time>2025-09-14T14:08:26Z</time>
      </trkpt>
      <trkpt lat="50.4604" lon="2.98502">
        <ele>41.8</ele>
        <time>2025-09-14T14:08:35Z</time>
      </trkpt>
      <trkpt lat="50.4605" lon="2.98495">
        <ele>41.6</ele>
        <time>2025-09-14T14:08:44Z</time>
      </trkpt>
      <trkpt lat="50.46056" lon="2.98485">
        <ele>41.4</ele>
        <time>2025-09-14T14:08:52Z</time>
      </trkpt>
      <trkpt lat="50.46059" lon="2.98474">
        <ele>41.7</ele>
        <time>2025-09-14T14:09:00Z</time>
      </trkpt>
      <trkpt lat="50.46062" lon="2.9846">
        <ele>41.5</ele>
        <time>2025-09-14T14:09:08Z</time>
      </trkpt>
      <trkpt lat="50.46066" lon="2.98446">
        <ele>39.6</ele>
        <time>2025-09-14T14:09:17Z</time>
      </trkpt>
      <trkpt lat="50.4607" lon="2.98433">
        <ele>38.9</ele>
        <time>2025-09-14T14:09:25Z</time>
      </trkpt>
      <trkpt lat="50.46071" lon="2.98423">
        <ele>39.1</ele>
        <time>2025-09-14T14:09:30Z</time>
      </trkpt>
      <trkpt lat="50.46072" lon="2.98414">
        <ele>39.4</ele>
        <time>2025-09-14T14:09:36Z</time>
      </trkpt>
      <trkpt lat="50.46071" lon="2.98398">
        <ele>39.6</ele>
        <time>2025-09-14T14:09:45Z</time>
      </trkpt>
      <trkpt lat="50.4607" lon="2.98382">
        <ele>40</ele>
        <time>2025-09-14T14:09:53Z</time>
      </trkpt>
      <trkpt lat="50.4607" lon="2.98378">
        <ele>39.8</ele>
        <time>2025-09-14T14:09:56Z</time>
      </trkpt>
      <trkpt lat="50.46069" lon="2.98375">
        <ele>39.8</ele>
        <time>2025-09-14T14:09:58Z</time>
      </trkpt>
      <trkpt lat="50.46067" lon="2.98366">
        <ele>39.9</ele>
        <time>2025-09-14T14:10:06Z</time>
      </trkpt>
      <trkpt lat="50.46066" lon="2.98365">
        <ele>40.2</ele>
        <time>2025-09-14T14:10:12Z</time>
      </trkpt>
      <trkpt lat="50.46066" lon="2.98363">
        <ele>40.1</ele>
        <time>2025-09-14T14:10:21Z</time>
      </trkpt>
      <trkpt lat="50.46066" lon="2.98362">
        <ele>40.1</ele>
        <time>2025-09-14T14:10:32Z</time>
      </trkpt>
      <trkpt lat="50.46066" lon="2.98363">
        <ele>40.1</ele>
        <time>2025-09-14T14:10:44Z</time>
      </trkpt>
      <trkpt lat="50.46066" lon="2.98362">
        <ele>40.1</ele>
        <time>2025-09-14T14:10:56Z</time>
      </trkpt>
      <trkpt lat="50.46066" lon="2.98363">
        <ele>40</ele>
        <time>2025-09-14T14:11:10Z</time>
      </trkpt>
      <trkpt lat="50.46066" lon="2.98362">
        <ele>40</ele>
        <time>2025-09-14T14:11:19Z</time>
      </trkpt>
      <trkpt lat="50.46066" lon="2.98361">
        <ele>40</ele>
        <time>2025-09-14T14:11:33Z</time>
      </trkpt>
      <trkpt lat="50.46066" lon="2.98361">
        <ele>39.9</ele>
        <time>2025-09-14T14:11:45Z</time>
      </trkpt>
      <trkpt lat="50.46066" lon="2.98361">
        <ele>39.9</ele>
        <time>2025-09-14T14:12:01Z</time>
      </trkpt>
      <trkpt lat="50.46066" lon="2.98362">
        <ele>39.9</ele>
        <time>2025-09-14T14:12:11Z</time>
      </trkpt>
      <trkpt lat="50.46066" lon="2.98361">
        <ele>40</ele>
        <time>2025-09-14T14:12:21Z</time>
      </trkpt>
      <trkpt lat="50.46066" lon="2.98361">
        <ele>40</ele>
        <time>2025-09-14T14:12:36Z</time>
      </trkpt>
      <trkpt lat="50.46066" lon="2.98361">
        <ele>40</ele>
        <time>2025-09-14T14:12:46Z</time>
      </trkpt>
      <trkpt lat="50.46066" lon="2.98361">
        <ele>39.9</ele>
        <time>2025-09-14T14:13:04Z</time>
      </trkpt>
      <trkpt lat="50.46066" lon="2.98357">
        <ele>39.8</ele>
        <time>2025-09-14T14:13:11Z</time>
      </trkpt>
      <trkpt lat="50.46065" lon="2.98353">
        <ele>39.7</ele>
        <time>2025-09-14T14:13:15Z</time>
      </trkpt>
      <trkpt lat="50.4606" lon="2.98337">
        <ele>38.9</ele>
        <time>2025-09-14T14:13:24Z</time>
      </trkpt>
      <trkpt lat="50.46059" lon="2.98333">
        <ele>38.6</ele>
        <time>2025-09-14T14:13:26Z</time>
      </trkpt>
      <trkpt lat="50.46052" lon="2.98322">
        <ele>39.2</ele>
        <time>2025-09-14T14:13:34Z</time>
      </trkpt>
      <trkpt lat="50.46049" lon="2.98314">
        <ele>39.1</ele>
        <time>2025-09-14T14:13:40Z</time>
      </trkpt>
      <trkpt lat="50.46043" lon="2.98305">
        <ele>38.4</ele>
        <time>2025-09-14T14:13:47Z</time>
      </trkpt>
      <trkpt lat="50.46035" lon="2.98299">
        <ele>38.4</ele>
        <time>2025-09-14T14:13:55Z</time>
      </trkpt>
      <trkpt lat="50.46032" lon="2.98297">
        <ele>38.3</ele>
        <time>2025-09-14T14:13:58Z</time>
      </trkpt>
      <trkpt lat="50.46024" lon="2.98292">
        <ele>38.1</ele>
        <time>2025-09-14T14:14:06Z</time>
      </trkpt>
      <trkpt lat="50.46014" lon="2.98288">
        <ele>38.2</ele>
        <time>2025-09-14T14:14:15Z</time>
      </trkpt>
      <trkpt lat="50.46001" lon="2.98288">
        <ele>38.7</ele>
        <time>2025-09-14T14:14:25Z</time>
      </trkpt>
      <trkpt lat="50.45992" lon="2.9829">
        <ele>38.8</ele>
        <time>2025-09-14T14:14:33Z</time>
      </trkpt>
      <trkpt lat="50.4599" lon="2.98291">
        <ele>38.8</ele>
        <time>2025-09-14T14:14:35Z</time>
      </trkpt>
      <trkpt lat="50.4598" lon="2.98296">
        <ele>38.9</ele>
        <time>2025-09-14T14:14:44Z</time>
      </trkpt>
      <trkpt lat="50.45971" lon="2.98302">
        <ele>38.8</ele>
        <time>2025-09-14T14:14:52Z</time>
      </trkpt>
      <trkpt lat="50.4597" lon="2.98303">
        <ele>38.8</ele>
        <time>2025-09-14T14:14:53Z</time>
      </trkpt>
      <trkpt lat="50.45965" lon="2.98308">
        <ele>38.9</ele>
        <time>2025-09-14T14:14:59Z</time>
      </trkpt>
      <trkpt lat="50.45963" lon="2.98311">
        <ele>39</ele>
        <time>2025-09-14T14:15:02Z</time>
      </trkpt>
      <trkpt lat="50.45957" lon="2.98321">
        <ele>39.3</ele>
        <time>2025-09-14T14:15:09Z</time>
      </trkpt>
      <trkpt lat="50.45957" lon="2.98323">
        <ele>39.3</ele>
        <time>2025-09-14T14:15:10Z</time>
      </trkpt>
      <trkpt lat="50.45949" lon="2.98339">
        <ele>39.5</ele>
        <time>2025-09-14T14:15:21Z</time>
      </trkpt>
      <trkpt lat="50.45942" lon="2.98357">
        <ele>38.9</ele>
        <time>2025-09-14T14:15:32Z</time>
      </trkpt>
      <trkpt lat="50.45935" lon="2.98377">
        <ele>38.8</ele>
        <time>2025-09-14T14:15:43Z</time>
      </trkpt>
      <trkpt lat="50.45931" lon="2.98393">
        <ele>38.6</ele>
        <time>2025-09-14T14:15:51Z</time>
      </trkpt>
      <trkpt lat="50.45927" lon="2.98408">
        <ele>38.2</ele>
        <time>2025-09-14T14:16:00Z</time>
      </trkpt>
      <trkpt lat="50.45924" lon="2.98423">
        <ele>37.6</ele>
        <time>2025-09-14T14:16:08Z</time>
      </trkpt>
      <trkpt lat="50.45922" lon="2.98444">
        <ele>37</ele>
        <time>2025-09-14T14:16:19Z</time>
      </trkpt>
      <trkpt lat="50.45917" lon="2.98461">
        <ele>36.1</ele>
        <time>2025-09-14T14:16:28Z</time>
      </trkpt>
      <trkpt lat="50.45908" lon="2.98469">
        <ele>36</ele>
        <time>2025-09-14T14:16:37Z</time>
      </trkpt>
      <trkpt lat="50.459" lon="2.98472">
        <ele>36</ele>
        <time>2025-09-14T14:16:45Z</time>
      </trkpt>
      <trkpt lat="50.45888" lon="2.98475">
        <ele>35.8</ele>
        <time>2025-09-14T14:16:55Z</time>
      </trkpt>
      <trkpt lat="50.45886" lon="2.98476">
        <ele>35.8</ele>
        <time>2025-09-14T14:16:56Z</time>
      </trkpt>
      <trkpt lat="50.45881" lon="2.98477">
        <ele>35.5</ele>
        <time>2025-09-14T14:17:00Z</time>
      </trkpt>
      <trkpt lat="50.45869" lon="2.98482">
        <ele>34.7</ele>
        <time>2025-09-14T14:17:11Z</time>
      </trkpt>
      <trkpt lat="50.45858" lon="2.98485">
        <ele>33.9</ele>
        <time>2025-09-14T14:17:20Z</time>
      </trkpt>
      <trkpt lat="50.45847" lon="2.98481">
        <ele>33.8</ele>
        <time>2025-09-14T14:17:29Z</time>
      </trkpt>
      <trkpt lat="50.45837" lon="2.98478">
        <ele>34.4</ele>
        <time>2025-09-14T14:17:37Z</time>
      </trkpt>
      <trkpt lat="50.45827" lon="2.98477">
        <ele>33.9</ele>
        <time>2025-09-14T14:17:45Z</time>
      </trkpt>
      <trkpt lat="50.45819" lon="2.98475">
        <ele>33.2</ele>
        <time>2025-09-14T14:17:53Z</time>
      </trkpt>
      <trkpt lat="50.45811" lon="2.98473">
        <ele>32.5</ele>
        <time>2025-09-14T14:18:00Z</time>
      </trkpt>
      <trkpt lat="50.458" lon="2.9847">
        <ele>31.5</ele>
        <time>2025-09-14T14:18:09Z</time>
      </trkpt>
      <trkpt lat="50.45798" lon="2.9847">
        <ele>31.3</ele>
        <time>2025-09-14T14:18:11Z</time>
      </trkpt>
      <trkpt lat="50.45789" lon="2.98468">
        <ele>30.3</ele>
        <time>2025-09-14T14:18:20Z</time>
      </trkpt>
      <trkpt lat="50.4578" lon="2.98466">
        <ele>29.8</ele>
        <time>2025-09-14T14:18:29Z</time>
      </trkpt>
      <trkpt lat="50.45778" lon="2.98465">
        <ele>29.6</ele>
        <time>2025-09-14T14:18:31Z</time>
      </trkpt>
      <trkpt lat="50.45774" lon="2.98464">
        <ele>29.5</ele>
        <time>2025-09-14T14:18:35Z</time>
      </trkpt>
      <trkpt lat="50.4577" lon="2.98463">
        <ele>29.2</ele>
        <time>2025-09-14T14:18:39Z</time>
      </trkpt>
      <trkpt lat="50.45765" lon="2.98458">
        <ele>29.4</ele>
        <time>2025-09-14T14:18:47Z</time>
      </trkpt>
      <trkpt lat="50.45761" lon="2.98456">
        <ele>29.2</ele>
        <time>2025-09-14T14:18:53Z</time>
      </trkpt>
      <trkpt lat="50.45756" lon="2.98456">
        <ele>28.5</ele>
        <time>2025-09-14T14:18:59Z</time>
      </trkpt>
      <trkpt lat="50.45753" lon="2.98456">
        <ele>28.2</ele>
        <time>2025-09-14T14:19:02Z</time>
      </trkpt>
      <trkpt lat="50.45751" lon="2.98455">
        <ele>27.9</ele>
        <time>2025-09-14T14:19:04Z</time>
      </trkpt>
      <trkpt lat="50.45741" lon="2.98454">
        <ele>27.4</ele>
        <time>2025-09-14T14:19:11Z</time>
      </trkpt>
      <trkpt lat="50.45729" lon="2.98449">
        <ele>26.6</ele>
        <time>2025-09-14T14:19:21Z</time>
      </trkpt>
      <trkpt lat="50.45719" lon="2.98443">
        <ele>26</ele>
        <time>2025-09-14T14:19:29Z</time>
      </trkpt>
      <trkpt lat="50.45714" lon="2.98428">
        <ele>27</ele>
        <time>2025-09-14T14:19:38Z</time>
      </trkpt>
      <trkpt lat="50.45713" lon="2.98426">
        <ele>27</ele>
        <time>2025-09-14T14:19:39Z</time>
      </trkpt>
      <trkpt lat="50.45712" lon="2.98421">
        <ele>27.2</ele>
        <time>2025-09-14T14:19:42Z</time>
      </trkpt>
      <trkpt lat="50.4571" lon="2.98408">
        <ele>27.2</ele>
        <time>2025-09-14T14:19:49Z</time>
      </trkpt>
      <trkpt lat="50.45708" lon="2.98403">
        <ele>27</ele>
        <time>2025-09-14T14:19:52Z</time>
      </trkpt>
      <trkpt lat="50.4571" lon="2.98394">
        <ele>27.2</ele>
        <time>2025-09-14T14:19:58Z</time>
      </trkpt>
      <trkpt lat="50.45707" lon="2.98381">
        <ele>26.9</ele>
        <time>2025-09-14T14:20:05Z</time>
      </trkpt>
      <trkpt lat="50.45705" lon="2.98376">
        <ele>26.5</ele>
        <time>2025-09-14T14:20:09Z</time>
      </trkpt>
      <trkpt lat="50.45701" lon="2.98365">
        <ele>26</ele>
        <time>2025-09-14T14:20:16Z</time>
      </trkpt>
      <trkpt lat="50.45699" lon="2.98358">
        <ele>25.6</ele>
        <time>2025-09-14T14:20:22Z</time>
      </trkpt>
      <trkpt lat="50.45698" lon="2.98355">
        <ele>25.5</ele>
        <time>2025-09-14T14:20:27Z</time>
      </trkpt>
      <trkpt lat="50.45696" lon="2.9835">
        <ele>25.2</ele>
        <time>2025-09-14T14:20:33Z</time>
      </trkpt>
      <trkpt lat="50.45693" lon="2.98349">
        <ele>25</ele>
        <time>2025-09-14T14:20:36Z</time>
      </trkpt>
      <trkpt lat="50.45684" lon="2.9835">
        <ele>25.4</ele>
        <time>2025-09-14T14:20:45Z</time>
      </trkpt>
      <trkpt lat="50.45677" lon="2.98351">
        <ele>25.6</ele>
        <time>2025-09-14T14:20:52Z</time>
      </trkpt>
      <trkpt lat="50.4567" lon="2.98362">
        <ele>25.9</ele>
        <time>2025-09-14T14:21:01Z</time>
      </trkpt>
      <trkpt lat="50.45668" lon="2.98376">
        <ele>26</ele>
        <time>2025-09-14T14:21:09Z</time>
      </trkpt>
      <trkpt lat="50.45667" lon="2.98388">
        <ele>26</ele>
        <time>2025-09-14T14:21:17Z</time>
      </trkpt>
      <trkpt lat="50.45667" lon="2.98396">
        <ele>25.8</ele>
        <time>2025-09-14T14:21:22Z</time>
      </trkpt>
      <trkpt lat="50.45666" lon="2.98412">
        <ele>25.2</ele>
        <time>2025-09-14T14:21:31Z</time>
      </trkpt>
      <trkpt lat="50.45665" lon="2.98427">
        <ele>25.4</ele>
        <time>2025-09-14T14:21:39Z</time>
      </trkpt>
      <trkpt lat="50.45665" lon="2.98429">
        <ele>25.5</ele>
        <time>2025-09-14T14:21:40Z</time>
      </trkpt>
      <trkpt lat="50.45664" lon="2.98439">
        <ele>26.1</ele>
        <time>2025-09-14T14:21:47Z</time>
      </trkpt>
      <trkpt lat="50.45661" lon="2.98447">
        <ele>27.4</ele>
        <time>2025-09-14T14:21:55Z</time>
      </trkpt>
      <trkpt lat="50.4566" lon="2.98449">
        <ele>27.8</ele>
        <time>2025-09-14T14:22:01Z</time>
      </trkpt>
      <trkpt lat="50.45659" lon="2.98449">
        <ele>28</ele>
        <time>2025-09-14T14:22:06Z</time>
      </trkpt>
      <trkpt lat="50.45658" lon="2.98449">
        <ele>28.2</ele>
        <time>2025-09-14T14:22:07Z</time>
      </trkpt>
      <trkpt lat="50.4565" lon="2.98445">
        <ele>28.5</ele>
        <time>2025-09-14T14:22:15Z</time>
      </trkpt>
      <trkpt lat="50.45647" lon="2.98444">
        <ele>28.8</ele>
        <time>2025-09-14T14:22:18Z</time>
      </trkpt>
      <trkpt lat="50.45639" lon="2.98441">
        <ele>29.3</ele>
        <time>2025-09-14T14:22:25Z</time>
      </trkpt>
      <trkpt lat="50.45629" lon="2.98436">
        <ele>30</ele>
        <time>2025-09-14T14:22:33Z</time>
      </trkpt>
      <trkpt lat="50.45625" lon="2.98435">
        <ele>30.4</ele>
        <time>2025-09-14T14:22:36Z</time>
      </trkpt>
      <trkpt lat="50.45615" lon="2.98433">
        <ele>31.6</ele>
        <time>2025-09-14T14:22:44Z</time>
      </trkpt>
      <trkpt lat="50.45612" lon="2.98432">
        <ele>31.7</ele>
        <time>2025-09-14T14:22:47Z</time>
      </trkpt>
      <trkpt lat="50.45606" lon="2.98429">
        <ele>31.7</ele>
        <time>2025-09-14T14:22:52Z</time>
      </trkpt>
      <trkpt lat="50.45601" lon="2.98427">
        <ele>31.5</ele>
        <time>2025-09-14T14:22:56Z</time>
      </trkpt>
      <trkpt lat="50.45591" lon="2.98424">
        <ele>31.5</ele>
        <time>2025-09-14T14:23:04Z</time>
      </trkpt>
      <trkpt lat="50.45584" lon="2.98422">
        <ele>31.7</ele>
        <time>2025-09-14T14:23:11Z</time>
      </trkpt>
      <trkpt lat="50.45571" lon="2.98417">
        <ele>32</ele>
        <time>2025-09-14T14:23:21Z</time>
      </trkpt>
      <trkpt lat="50.45561" lon="2.98413">
        <ele>32.7</ele>
        <time>2025-09-14T14:23:30Z</time>
      </trkpt>
      <trkpt lat="50.45556" lon="2.9841">
        <ele>32.8</ele>
        <time>2025-09-14T14:23:35Z</time>
      </trkpt>
      <trkpt lat="50.45552" lon="2.9841">
        <ele>33.3</ele>
        <time>2025-09-14T14:23:38Z</time>
      </trkpt>
      <trkpt lat="50.45542" lon="2.98408">
        <ele>34</ele>
        <time>2025-09-14T14:23:47Z</time>
      </trkpt>
      <trkpt lat="50.45532" lon="2.98403">
        <ele>34.1</ele>
        <time>2025-09-14T14:23:56Z</time>
      </trkpt>
      <trkpt lat="50.45522" lon="2.984">
        <ele>34.7</ele>
        <time>2025-09-14T14:24:04Z</time>
      </trkpt>
      <trkpt lat="50.45516" lon="2.98397">
        <ele>34.6</ele>
        <time>2025-09-14T14:24:09Z</time>
      </trkpt>
      <trkpt lat="50.45506" lon="2.98394">
        <ele>35.4</ele>
        <time>2025-09-14T14:24:17Z</time>
      </trkpt>
      <trkpt lat="50.45495" lon="2.9839">
        <ele>35.9</ele>
        <time>2025-09-14T14:24:26Z</time>
      </trkpt>
      <trkpt lat="50.45488" lon="2.98387">
        <ele>36.4</ele>
        <time>2025-09-14T14:24:32Z</time>
      </trkpt>
      <trkpt lat="50.45485" lon="2.98388">
        <ele>37</ele>
        <time>2025-09-14T14:24:35Z</time>
      </trkpt>
      <trkpt lat="50.45474" lon="2.98385">
        <ele>38</ele>
        <time>2025-09-14T14:24:44Z</time>
      </trkpt>
      <trkpt lat="50.45466" lon="2.98386">
        <ele>38.3</ele>
        <time>2025-09-14T14:24:51Z</time>
      </trkpt>
      <trkpt lat="50.45458" lon="2.98388">
        <ele>38.4</ele>
        <time>2025-09-14T14:24:59Z</time>
      </trkpt>
      <trkpt lat="50.45447" lon="2.98392">
        <ele>38.4</ele>
        <time>2025-09-14T14:25:09Z</time>
      </trkpt>
      <trkpt lat="50.45438" lon="2.98399">
        <ele>38.9</ele>
        <time>2025-09-14T14:25:18Z</time>
      </trkpt>
      <trkpt lat="50.45427" lon="2.98404">
        <ele>39</ele>
        <time>2025-09-14T14:25:27Z</time>
      </trkpt>
      <trkpt lat="50.45415" lon="2.98408">
        <ele>38.7</ele>
        <time>2025-09-14T14:25:38Z</time>
      </trkpt>
      <trkpt lat="50.45405" lon="2.98408">
        <ele>38.4</ele>
        <time>2025-09-14T14:25:46Z</time>
      </trkpt>
      <trkpt lat="50.45401" lon="2.98406">
        <ele>38.3</ele>
        <time>2025-09-14T14:25:49Z</time>
      </trkpt>
      <trkpt lat="50.4539" lon="2.98403">
        <ele>38</ele>
        <time>2025-09-14T14:25:58Z</time>
      </trkpt>
      <trkpt lat="50.45379" lon="2.98398">
        <ele>38.1</ele>
        <time>2025-09-14T14:26:07Z</time>
      </trkpt>
      <trkpt lat="50.45368" lon="2.98394">
        <ele>38.1</ele>
        <time>2025-09-14T14:26:15Z</time>
      </trkpt>
      <trkpt lat="50.45354" lon="2.9839">
        <ele>38</ele>
        <time>2025-09-14T14:26:27Z</time>
      </trkpt>
      <trkpt lat="50.45345" lon="2.98384">
        <ele>37.9</ele>
        <time>2025-09-14T14:26:34Z</time>
      </trkpt>
      <trkpt lat="50.45336" lon="2.98382">
        <ele>37.8</ele>
        <time>2025-09-14T14:26:42Z</time>
      </trkpt>
      <trkpt lat="50.45325" lon="2.98381">
        <ele>38.2</ele>
        <time>2025-09-14T14:26:51Z</time>
      </trkpt>
      <trkpt lat="50.45312" lon="2.98378">
        <ele>38.9</ele>
        <time>2025-09-14T14:27:02Z</time>
      </trkpt>
      <trkpt lat="50.45301" lon="2.9838">
        <ele>39.3</ele>
        <time>2025-09-14T14:27:11Z</time>
      </trkpt>
      <trkpt lat="50.45288" lon="2.98382">
        <ele>39.2</ele>
        <time>2025-09-14T14:27:21Z</time>
      </trkpt>
      <trkpt lat="50.4528" lon="2.98385">
        <ele>39.1</ele>
        <time>2025-09-14T14:27:27Z</time>
      </trkpt>
      <trkpt lat="50.45274" lon="2.98388">
        <ele>39.1</ele>
        <time>2025-09-14T14:27:32Z</time>
      </trkpt>
      <trkpt lat="50.45272" lon="2.98389">
        <ele>39.2</ele>
        <time>2025-09-14T14:27:33Z</time>
      </trkpt>
      <trkpt lat="50.45268" lon="2.9839">
        <ele>39.4</ele>
        <time>2025-09-14T14:27:36Z</time>
      </trkpt>
      <trkpt lat="50.45261" lon="2.98393">
        <ele>39.7</ele>
        <time>2025-09-14T14:27:43Z</time>
      </trkpt>
      <trkpt lat="50.45256" lon="2.984">
        <ele>40</ele>
        <time>2025-09-14T14:27:51Z</time>
      </trkpt>
      <trkpt lat="50.45253" lon="2.98404">
        <ele>40</ele>
        <time>2025-09-14T14:27:58Z</time>
      </trkpt>
      <trkpt lat="50.45252" lon="2.98405">
        <ele>40</ele>
        <time>2025-09-14T14:28:06Z</time>
      </trkpt>
      <trkpt lat="50.45252" lon="2.98408">
        <ele>40</ele>
        <time>2025-09-14T14:28:12Z</time>
      </trkpt>
      <trkpt lat="50.45252" lon="2.9841">
        <ele>40</ele>
        <time>2025-09-14T14:28:18Z</time>
      </trkpt>
      <trkpt lat="50.45252" lon="2.98411">
        <ele>40</ele>
        <time>2025-09-14T14:28:23Z</time>
      </trkpt>
      <trkpt lat="50.45252" lon="2.98412">
        <ele>40</ele>
        <time>2025-09-14T14:28:38Z</time>
      </trkpt>
      <trkpt lat="50.45253" lon="2.98411">
        <ele>40.1</ele>
        <time>2025-09-14T14:28:55Z</time>
      </trkpt>
      <trkpt lat="50.45253" lon="2.98411">
        <ele>40.1</ele>
        <time>2025-09-14T14:29:11Z</time>
      </trkpt>
      <trkpt lat="50.45253" lon="2.98411">
        <ele>40.1</ele>
        <time>2025-09-14T14:29:28Z</time>
      </trkpt>
      <trkpt lat="50.45253" lon="2.98411">
        <ele>40.1</ele>
        <time>2025-09-14T14:29:45Z</time>
      </trkpt>
      <trkpt lat="50.45253" lon="2.98411">
        <ele>40.1</ele>
        <time>2025-09-14T14:30:00Z</time>
      </trkpt>
      <trkpt lat="50.45253" lon="2.9841">
        <ele>40.1</ele>
        <time>2025-09-14T14:30:18Z</time>
      </trkpt>
      <trkpt lat="50.45253" lon="2.9841">
        <ele>40.1</ele>
        <time>2025-09-14T14:30:34Z</time>
      </trkpt>
      <trkpt lat="50.45253" lon="2.98411">
        <ele>40.1</ele>
        <time>2025-09-14T14:30:49Z</time>
      </trkpt>
      <trkpt lat="50.45253" lon="2.98411">
        <ele>40.1</ele>
        <time>2025-09-14T14:31:04Z</time>
      </trkpt>
      <trkpt lat="50.45253" lon="2.98411">
        <ele>40.1</ele>
        <time>2025-09-14T14:31:20Z</time>
      </trkpt>
      <trkpt lat="50.45253" lon="2.98411">
        <ele>40.1</ele>
        <time>2025-09-14T14:31:35Z</time>
      </trkpt>
      <trkpt lat="50.45253" lon="2.98411">
        <ele>40.1</ele>
        <time>2025-09-14T14:31:49Z</time>
      </trkpt>
      <trkpt lat="50.45253" lon="2.98411">
        <ele>40.1</ele>
        <time>2025-09-14T14:32:07Z</time>
      </trkpt>
      <trkpt lat="50.45253" lon="2.98411">
        <ele>40.1</ele>
        <time>2025-09-14T14:32:23Z</time>
      </trkpt>
      <trkpt lat="50.45254" lon="2.9841">
        <ele>40.1</ele>
        <time>2025-09-14T14:32:40Z</time>
      </trkpt>
      <trkpt lat="50.45254" lon="2.9841">
        <ele>40.1</ele>
        <time>2025-09-14T14:32:56Z</time>
      </trkpt>
      <trkpt lat="50.45253" lon="2.9841">
        <ele>40.1</ele>
        <time>2025-09-14T14:33:12Z</time>
      </trkpt>
      <trkpt lat="50.45253" lon="2.9841">
        <ele>40.1</ele>
        <time>2025-09-14T14:33:28Z</time>
      </trkpt>
      <trkpt lat="50.45253" lon="2.9841">
        <ele>40.1</ele>
        <time>2025-09-14T14:33:46Z</time>
      </trkpt>
      <trkpt lat="50.45253" lon="2.98411">
        <ele>40.1</ele>
        <time>2025-09-14T14:34:03Z</time>
      </trkpt>
      <trkpt lat="50.45253" lon="2.98411">
        <ele>40.1</ele>
        <time>2025-09-14T14:34:20Z</time>
      </trkpt>
      <trkpt lat="50.45253" lon="2.98411">
        <ele>40.1</ele>
        <time>2025-09-14T14:34:38Z</time>
      </trkpt>
      <trkpt lat="50.45253" lon="2.98411">
        <ele>40.1</ele>
        <time>2025-09-14T14:34:55Z</time>
      </trkpt>
      <trkpt lat="50.45253" lon="2.98411">
        <ele>40.1</ele>
        <time>2025-09-14T14:35:13Z</time>
      </trkpt>
      <trkpt lat="50.45252" lon="2.98411">
        <ele>40.1</ele>
        <time>2025-09-14T14:35:30Z</time>
      </trkpt>
      <trkpt lat="50.45252" lon="2.98411">
        <ele>40</ele>
        <time>2025-09-14T14:35:45Z</time>
      </trkpt>
      <trkpt lat="50.45252" lon="2.98411">
        <ele>40</ele>
        <time>2025-09-14T14:35:58Z</time>
      </trkpt>
      <trkpt lat="50.45252" lon="2.9841">
        <ele>40</ele>
        <time>2025-09-14T14:36:18Z</time>
      </trkpt>
      <trkpt lat="50.45252" lon="2.9841">
        <ele>40</ele>
        <time>2025-09-14T14:36:37Z</time>
      </trkpt>
      <trkpt lat="50.45251" lon="2.9841">
        <ele>40</ele>
        <time>2025-09-14T14:36:52Z</time>
      </trkpt>
      <trkpt lat="50.45252" lon="2.9841">
        <ele>40</ele>
        <time>2025-09-14T14:36:53Z</time>
      </trkpt>
      <trkpt lat="50.45252" lon="2.98412">
        <ele>40</ele>
        <time>2025-09-14T14:36:58Z</time>
      </trkpt>
      <trkpt lat="50.45252" lon="2.98412">
        <ele>40</ele>
        <time>2025-09-14T14:37:06Z</time>
      </trkpt>
      <trkpt lat="50.45252" lon="2.98411">
        <ele>40</ele>
        <time>2025-09-14T14:37:14Z</time>
      </trkpt>
      <trkpt lat="50.45251" lon="2.98408">
        <ele>40</ele>
        <time>2025-09-14T14:37:21Z</time>
      </trkpt>
      <trkpt lat="50.45249" lon="2.98408">
        <ele>39.9</ele>
        <time>2025-09-14T14:37:27Z</time>
      </trkpt>
      <trkpt lat="50.45247" lon="2.98407">
        <ele>39.7</ele>
        <time>2025-09-14T14:37:33Z</time>
      </trkpt>
      <trkpt lat="50.45243" lon="2.98409">
        <ele>39.3</ele>
        <time>2025-09-14T14:37:39Z</time>
      </trkpt>
      <trkpt lat="50.45238" lon="2.98415">
        <ele>39.4</ele>
        <time>2025-09-14T14:37:45Z</time>
      </trkpt>
      <trkpt lat="50.45236" lon="2.98418">
        <ele>39.6</ele>
        <time>2025-09-14T14:37:47Z</time>
      </trkpt>
      <trkpt lat="50.45231" lon="2.98425">
        <ele>40</ele>
        <time>2025-09-14T14:37:53Z</time>
      </trkpt>
      <trkpt lat="50.45223" lon="2.98437">
        <ele>40.5</ele>
        <time>2025-09-14T14:38:03Z</time>
      </trkpt>
      <trkpt lat="50.45222" lon="2.9844">
        <ele>40.6</ele>
        <time>2025-09-14T14:38:05Z</time>
      </trkpt>
      <trkpt lat="50.45216" lon="2.98448">
        <ele>39.9</ele>
        <time>2025-09-14T14:38:11Z</time>
      </trkpt>
      <trkpt lat="50.45213" lon="2.98461">
        <ele>40.8</ele>
        <time>2025-09-14T14:38:19Z</time>
      </trkpt>
      <trkpt lat="50.45206" lon="2.98478">
        <ele>41.7</ele>
        <time>2025-09-14T14:38:30Z</time>
      </trkpt>
      <trkpt lat="50.45199" lon="2.98494">
        <ele>42</ele>
        <time>2025-09-14T14:38:40Z</time>
      </trkpt>
      <trkpt lat="50.45194" lon="2.98508">
        <ele>41.5</ele>
        <time>2025-09-14T14:38:49Z</time>
      </trkpt>
      <trkpt lat="50.45189" lon="2.98519">
        <ele>40.6</ele>
        <time>2025-09-14T14:38:57Z</time>
      </trkpt>
      <trkpt lat="50.45183" lon="2.98528">
        <ele>39.9</ele>
        <time>2025-09-14T14:39:04Z</time>
      </trkpt>
      <trkpt lat="50.4518" lon="2.98536">
        <ele>40.6</ele>
        <time>2025-09-14T14:39:09Z</time>
      </trkpt>
      <trkpt lat="50.45175" lon="2.98546">
        <ele>41</ele>
        <time>2025-09-14T14:39:16Z</time>
      </trkpt>
      <trkpt lat="50.4517" lon="2.98561">
        <ele>41.5</ele>
        <time>2025-09-14T14:39:24Z</time>
      </trkpt>
      <trkpt lat="50.45166" lon="2.98568">
        <ele>40.6</ele>
        <time>2025-09-14T14:39:29Z</time>
      </trkpt>
      <trkpt lat="50.45162" lon="2.98576">
        <ele>39.9</ele>
        <time>2025-09-14T14:39:34Z</time>
      </trkpt>
      <trkpt lat="50.45159" lon="2.98582">
        <ele>39.6</ele>
        <time>2025-09-14T14:39:38Z</time>
      </trkpt>
      <trkpt lat="50.45152" lon="2.98598">
        <ele>41</ele>
        <time>2025-09-14T14:39:46Z</time>
      </trkpt>
      <trkpt lat="50.45152" lon="2.98599">
        <ele>41</ele>
        <time>2025-09-14T14:39:47Z</time>
      </trkpt>
      <trkpt lat="50.45144" lon="2.98617">
        <ele>41.6</ele>
        <time>2025-09-14T14:39:57Z</time>
      </trkpt>
      <trkpt lat="50.45134" lon="2.98634">
        <ele>40.3</ele>
        <time>2025-09-14T14:40:07Z</time>
      </trkpt>
      <trkpt lat="50.45125" lon="2.98647">
        <ele>40.1</ele>
        <time>2025-09-14T14:40:16Z</time>
      </trkpt>
      <trkpt lat="50.45117" lon="2.9866">
        <ele>40.4</ele>
        <time>2025-09-14T14:40:24Z</time>
      </trkpt>
      <trkpt lat="50.45108" lon="2.98669">
        <ele>39.7</ele>
        <time>2025-09-14T14:40:32Z</time>
      </trkpt>
      <trkpt lat="50.45099" lon="2.98676">
        <ele>39.2</ele>
        <time>2025-09-14T14:40:40Z</time>
      </trkpt>
      <trkpt lat="50.45091" lon="2.98683">
        <ele>39.2</ele>
        <time>2025-09-14T14:40:46Z</time>
      </trkpt>
      <trkpt lat="50.45085" lon="2.9869">
        <ele>39.5</ele>
        <time>2025-09-14T14:40:52Z</time>
      </trkpt>
      <trkpt lat="50.45077" lon="2.98697">
        <ele>39.5</ele>
        <time>2025-09-14T14:40:59Z</time>
      </trkpt>
      <trkpt lat="50.45068" lon="2.98706">
        <ele>39.1</ele>
        <time>2025-09-14T14:41:07Z</time>
      </trkpt>
      <trkpt lat="50.4506" lon="2.98715">
        <ele>38.9</ele>
        <time>2025-09-14T14:41:15Z</time>
      </trkpt>
      <trkpt lat="50.45052" lon="2.9872">
        <ele>38</ele>
        <time>2025-09-14T14:41:22Z</time>
      </trkpt>
      <trkpt lat="50.45044" lon="2.9873">
        <ele>38.2</ele>
        <time>2025-09-14T14:41:30Z</time>
      </trkpt>
      <trkpt lat="50.45041" lon="2.98732">
        <ele>38.2</ele>
        <time>2025-09-14T14:41:32Z</time>
      </trkpt>
      <trkpt lat="50.45033" lon="2.98744">
        <ele>38.8</ele>
        <time>2025-09-14T14:41:41Z</time>
      </trkpt>
      <trkpt lat="50.45026" lon="2.98754">
        <ele>38.6</ele>
        <time>2025-09-14T14:41:48Z</time>
      </trkpt>
      <trkpt lat="50.4502" lon="2.98765">
        <ele>37.8</ele>
        <time>2025-09-14T14:41:56Z</time>
      </trkpt>
      <trkpt lat="50.45015" lon="2.98773">
        <ele>37.7</ele>
        <time>2025-09-14T14:42:01Z</time>
      </trkpt>
      <trkpt lat="50.45008" lon="2.98782">
        <ele>38</ele>
        <time>2025-09-14T14:42:09Z</time>
      </trkpt>
      <trkpt lat="50.45004" lon="2.98788">
        <ele>37.9</ele>
        <time>2025-09-14T14:42:13Z</time>
      </trkpt>
      <trkpt lat="50.44996" lon="2.98801">
        <ele>37.1</ele>
        <time>2025-09-14T14:42:22Z</time>
      </trkpt>
      <trkpt lat="50.44989" lon="2.98808">
        <ele>36.9</ele>
        <time>2025-09-14T14:42:29Z</time>
      </trkpt>
      <trkpt lat="50.44985" lon="2.98812">
        <ele>37</ele>
        <time>2025-09-14T14:42:32Z</time>
      </trkpt>
      <trkpt lat="50.44982" lon="2.98818">
        <ele>37.7</ele>
        <time>2025-09-14T14:42:37Z</time>
      </trkpt>
      <trkpt lat="50.44975" lon="2.9883">
        <ele>38.7</ele>
        <time>2025-09-14T14:42:45Z</time>
      </trkpt>
      <trkpt lat="50.44965" lon="2.98846">
        <ele>37.4</ele>
        <time>2025-09-14T14:42:55Z</time>
      </trkpt>
      <trkpt lat="50.44957" lon="2.98863">
        <ele>37.5</ele>
        <time>2025-09-14T14:43:04Z</time>
      </trkpt>
      <trkpt lat="50.4495" lon="2.98877">
        <ele>38.1</ele>
        <time>2025-09-14T14:43:12Z</time>
      </trkpt>
      <trkpt lat="50.44945" lon="2.98888">
        <ele>38.9</ele>
        <time>2025-09-14T14:43:19Z</time>
      </trkpt>
      <trkpt lat="50.44936" lon="2.98908">
        <ele>37.7</ele>
        <time>2025-09-14T14:43:30Z</time>
      </trkpt>
      <trkpt lat="50.44928" lon="2.98924">
        <ele>37.7</ele>
        <time>2025-09-14T14:43:41Z</time>
      </trkpt>
      <trkpt lat="50.44922" lon="2.98942">
        <ele>38.8</ele>
        <time>2025-09-14T14:43:51Z</time>
      </trkpt>
      <trkpt lat="50.4492" lon="2.98947">
        <ele>39.1</ele>
        <time>2025-09-14T14:43:54Z</time>
      </trkpt>
      <trkpt lat="50.44914" lon="2.98959">
        <ele>38.9</ele>
        <time>2025-09-14T14:44:02Z</time>
      </trkpt>
      <trkpt lat="50.44911" lon="2.98967">
        <ele>38.8</ele>
        <time>2025-09-14T14:44:06Z</time>
      </trkpt>
      <trkpt lat="50.44905" lon="2.98976">
        <ele>38.5</ele>
        <time>2025-09-14T14:44:13Z</time>
      </trkpt>
      <trkpt lat="50.44898" lon="2.98991">
        <ele>38.6</ele>
        <time>2025-09-14T14:44:22Z</time>
      </trkpt>
      <trkpt lat="50.4489" lon="2.99004">
        <ele>39</ele>
        <time>2025-09-14T14:44:31Z</time>
      </trkpt>
      <trkpt lat="50.44884" lon="2.99018">
        <ele>38.4</ele>
        <time>2025-09-14T14:44:39Z</time>
      </trkpt>
      <trkpt lat="50.44879" lon="2.99033">
        <ele>38.5</ele>
        <time>2025-09-14T14:44:48Z</time>
      </trkpt>
      <trkpt lat="50.44873" lon="2.99049">
        <ele>39.1</ele>
        <time>2025-09-14T14:44:57Z</time>
      </trkpt>
      <trkpt lat="50.44867" lon="2.99068">
        <ele>39.5</ele>
        <time>2025-09-14T14:45:08Z</time>
      </trkpt>
      <trkpt lat="50.44862" lon="2.99082">
        <ele>39.9</ele>
        <time>2025-09-14T14:45:16Z</time>
      </trkpt>
      <trkpt lat="50.44856" lon="2.99094">
        <ele>38.4</ele>
        <time>2025-09-14T14:45:24Z</time>
      </trkpt>
      <trkpt lat="50.44852" lon="2.99109">
        <ele>37</ele>
        <time>2025-09-14T14:45:32Z</time>
      </trkpt>
      <trkpt lat="50.44849" lon="2.99125">
        <ele>36.8</ele>
        <time>2025-09-14T14:45:40Z</time>
      </trkpt>
      <trkpt lat="50.44846" lon="2.99139">
        <ele>36.9</ele>
        <time>2025-09-14T14:45:48Z</time>
      </trkpt>
      <trkpt lat="50.44847" lon="2.99145">
        <ele>37.4</ele>
        <time>2025-09-14T14:45:51Z</time>
      </trkpt>
      <trkpt lat="50.44846" lon="2.9916">
        <ele>38.1</ele>
        <time>2025-09-14T14:45:59Z</time>
      </trkpt>
      <trkpt lat="50.44848" lon="2.99165">
        <ele>39</ele>
        <time>2025-09-14T14:46:03Z</time>
      </trkpt>
      <trkpt lat="50.44851" lon="2.99169">
        <ele>40</ele>
        <time>2025-09-14T14:46:07Z</time>
      </trkpt>
      <trkpt lat="50.4486" lon="2.99181">
        <ele>42.3</ele>
        <time>2025-09-14T14:46:17Z</time>
      </trkpt>
      <trkpt lat="50.44864" lon="2.99185">
        <ele>42.9</ele>
        <time>2025-09-14T14:46:21Z</time>
      </trkpt>
      <trkpt lat="50.44876" lon="2.99194">
        <ele>44.5</ele>
        <time>2025-09-14T14:46:32Z</time>
      </trkpt>
      <trkpt lat="50.44877" lon="2.99195">
        <ele>44.7</ele>
        <time>2025-09-14T14:46:33Z</time>
      </trkpt>
      <trkpt lat="50.44879" lon="2.99198">
        <ele>44.9</ele>
        <time>2025-09-14T14:46:36Z</time>
      </trkpt>
      <trkpt lat="50.44887" lon="2.99205">
        <ele>45.5</ele>
        <time>2025-09-14T14:46:44Z</time>
      </trkpt>
      <trkpt lat="50.44894" lon="2.99215">
        <ele>46.4</ele>
        <time>2025-09-14T14:46:52Z</time>
      </trkpt>
      <trkpt lat="50.449" lon="2.99226">
        <ele>47.6</ele>
        <time>2025-09-14T14:47:00Z</time>
      </trkpt>
      <trkpt lat="50.44901" lon="2.99229">
        <ele>47.8</ele>
        <time>2025-09-14T14:47:02Z</time>
      </trkpt>
      <trkpt lat="50.44903" lon="2.99232">
        <ele>48</ele>
        <time>2025-09-14T14:47:04Z</time>
      </trkpt>
      <trkpt lat="50.4491" lon="2.99245">
        <ele>48.8</ele>
        <time>2025-09-14T14:47:13Z</time>
      </trkpt>
      <trkpt lat="50.44911" lon="2.99247">
        <ele>49</ele>
        <time>2025-09-14T14:47:15Z</time>
      </trkpt>
      <trkpt lat="50.44918" lon="2.9926">
        <ele>49.1</ele>
        <time>2025-09-14T14:47:24Z</time>
      </trkpt>
      <trkpt lat="50.44924" lon="2.99272">
        <ele>49.3</ele>
        <time>2025-09-14T14:47:32Z</time>
      </trkpt>
      <trkpt lat="50.44927" lon="2.99277">
        <ele>49.8</ele>
        <time>2025-09-14T14:47:36Z</time>
      </trkpt>
      <trkpt lat="50.44934" lon="2.99291">
        <ele>50.3</ele>
        <time>2025-09-14T14:47:45Z</time>
      </trkpt>
      <trkpt lat="50.44939" lon="2.99301">
        <ele>50.8</ele>
        <time>2025-09-14T14:47:52Z</time>
      </trkpt>
      <trkpt lat="50.44947" lon="2.99315">
        <ele>50.8</ele>
        <time>2025-09-14T14:48:01Z</time>
      </trkpt>
      <trkpt lat="50.44953" lon="2.99328">
        <ele>49.8</ele>
        <time>2025-09-14T14:48:09Z</time>
      </trkpt>
      <trkpt lat="50.44962" lon="2.99341">
        <ele>50</ele>
        <time>2025-09-14T14:48:18Z</time>
      </trkpt>
      <trkpt lat="50.44971" lon="2.99357">
        <ele>50.9</ele>
        <time>2025-09-14T14:48:29Z</time>
      </trkpt>
      <trkpt lat="50.44973" lon="2.9936">
        <ele>51.1</ele>
        <time>2025-09-14T14:48:31Z</time>
      </trkpt>
      <trkpt lat="50.44979" lon="2.99369">
        <ele>51.5</ele>
        <time>2025-09-14T14:48:38Z</time>
      </trkpt>
      <trkpt lat="50.44982" lon="2.99373">
        <ele>51.6</ele>
        <time>2025-09-14T14:48:41Z</time>
      </trkpt>
      <trkpt lat="50.44989" lon="2.99378">
        <ele>51.8</ele>
        <time>2025-09-14T14:48:47Z</time>
      </trkpt>
      <trkpt lat="50.44998" lon="2.99384">
        <ele>52</ele>
        <time>2025-09-14T14:48:55Z</time>
      </trkpt>
      <trkpt lat="50.4501" lon="2.9939">
        <ele>52</ele>
        <time>2025-09-14T14:49:04Z</time>
      </trkpt>
      <trkpt lat="50.45023" lon="2.99395">
        <ele>52</ele>
        <time>2025-09-14T14:49:14Z</time>
      </trkpt>
      <trkpt lat="50.45034" lon="2.99401">
        <ele>52</ele>
        <time>2025-09-14T14:49:23Z</time>
      </trkpt>
      <trkpt lat="50.45041" lon="2.99404">
        <ele>51.9</ele>
        <time>2025-09-14T14:49:30Z</time>
      </trkpt>
      <trkpt lat="50.45044" lon="2.99405">
        <ele>51.9</ele>
        <time>2025-09-14T14:49:32Z</time>
      </trkpt>
      <trkpt lat="50.45053" lon="2.99411">
        <ele>51.5</ele>
        <time>2025-09-14T14:49:40Z</time>
      </trkpt>
      <trkpt lat="50.45062" lon="2.99414">
        <ele>51.2</ele>
        <time>2025-09-14T14:49:47Z</time>
      </trkpt>
      <trkpt lat="50.45073" lon="2.99419">
        <ele>51.2</ele>
        <time>2025-09-14T14:49:56Z</time>
      </trkpt>
      <trkpt lat="50.45085" lon="2.99421">
        <ele>51.4</ele>
        <time>2025-09-14T14:50:05Z</time>
      </trkpt>
      <trkpt lat="50.45095" lon="2.99423">
        <ele>51.1</ele>
        <time>2025-09-14T14:50:13Z</time>
      </trkpt>
      <trkpt lat="50.45106" lon="2.99421">
        <ele>50.4</ele>
        <time>2025-09-14T14:50:21Z</time>
      </trkpt>
      <trkpt lat="50.45117" lon="2.99417">
        <ele>49.8</ele>
        <time>2025-09-14T14:50:30Z</time>
      </trkpt>
      <trkpt lat="50.45127" lon="2.99411">
        <ele>49.7</ele>
        <time>2025-09-14T14:50:38Z</time>
      </trkpt>
      <trkpt lat="50.45135" lon="2.99407">
        <ele>49.5</ele>
        <time>2025-09-14T14:50:45Z</time>
      </trkpt>
      <trkpt lat="50.45146" lon="2.99402">
        <ele>49.4</ele>
        <time>2025-09-14T14:50:54Z</time>
      </trkpt>
      <trkpt lat="50.45158" lon="2.99397">
        <ele>49.2</ele>
        <time>2025-09-14T14:51:04Z</time>
      </trkpt>
      <trkpt lat="50.45169" lon="2.99387">
        <ele>48.9</ele>
        <time>2025-09-14T14:51:14Z</time>
      </trkpt>
      <trkpt lat="50.45177" lon="2.99378">
        <ele>48.6</ele>
        <time>2025-09-14T14:51:22Z</time>
      </trkpt>
      <trkpt lat="50.45187" lon="2.99364">
        <ele>48.3</ele>
        <time>2025-09-14T14:51:32Z</time>
      </trkpt>
      <trkpt lat="50.45193" lon="2.99356">
        <ele>48.2</ele>
        <time>2025-09-14T14:51:38Z</time>
      </trkpt>
      <trkpt lat="50.452" lon="2.99347">
        <ele>48.4</ele>
        <time>2025-09-14T14:51:45Z</time>
      </trkpt>
      <trkpt lat="50.4521" lon="2.99335">
        <ele>48.4</ele>
        <time>2025-09-14T14:51:54Z</time>
      </trkpt>
      <trkpt lat="50.45219" lon="2.99324">
        <ele>47.9</ele>
        <time>2025-09-14T14:52:03Z</time>
      </trkpt>
      <trkpt lat="50.45228" lon="2.99313">
        <ele>47.4</ele>
        <time>2025-09-14T14:52:12Z</time>
      </trkpt>
      <trkpt lat="50.45235" lon="2.99303">
        <ele>47.4</ele>
        <time>2025-09-14T14:52:19Z</time>
      </trkpt>
      <trkpt lat="50.45243" lon="2.99293">
        <ele>47.2</ele>
        <time>2025-09-14T14:52:26Z</time>
      </trkpt>
      <trkpt lat="50.45251" lon="2.99286">
        <ele>46.6</ele>
        <time>2025-09-14T14:52:33Z</time>
      </trkpt>
      <trkpt lat="50.45255" lon="2.99282">
        <ele>46.2</ele>
        <time>2025-09-14T14:52:37Z</time>
      </trkpt>
      <trkpt lat="50.45266" lon="2.99275">
        <ele>45.6</ele>
        <time>2025-09-14T14:52:46Z</time>
      </trkpt>
      <trkpt lat="50.45276" lon="2.9927">
        <ele>45.6</ele>
        <time>2025-09-14T14:52:54Z</time>
      </trkpt>
      <trkpt lat="50.45278" lon="2.99269">
        <ele>45.6</ele>
        <time>2025-09-14T14:52:55Z</time>
      </trkpt>
      <trkpt lat="50.45287" lon="2.99272">
        <ele>45</ele>
        <time>2025-09-14T14:53:03Z</time>
      </trkpt>
      <trkpt lat="50.45299" lon="2.99272">
        <ele>44.3</ele>
        <time>2025-09-14T14:53:13Z</time>
      </trkpt>
      <trkpt lat="50.45303" lon="2.99272">
        <ele>44.1</ele>
        <time>2025-09-14T14:53:16Z</time>
      </trkpt>
      <trkpt lat="50.45307" lon="2.99272">
        <ele>43.9</ele>
        <time>2025-09-14T14:53:20Z</time>
      </trkpt>
      <trkpt lat="50.45314" lon="2.9927">
        <ele>43.5</ele>
        <time>2025-09-14T14:53:27Z</time>
      </trkpt>
      <trkpt lat="50.45322" lon="2.9927">
        <ele>43</ele>
        <time>2025-09-14T14:53:35Z</time>
      </trkpt>
      <trkpt lat="50.45325" lon="2.9927">
        <ele>42.8</ele>
        <time>2025-09-14T14:53:37Z</time>
      </trkpt>
      <trkpt lat="50.45331" lon="2.99273">
        <ele>42.4</ele>
        <time>2025-09-14T14:53:43Z</time>
      </trkpt>
      <trkpt lat="50.45332" lon="2.99273">
        <ele>42.3</ele>
        <time>2025-09-14T14:53:45Z</time>
      </trkpt>
      <trkpt lat="50.45335" lon="2.99276">
        <ele>41.9</ele>
        <time>2025-09-14T14:53:49Z</time>
      </trkpt>
      <trkpt lat="50.45337" lon="2.99274">
        <ele>41.9</ele>
        <time>2025-09-14T14:53:55Z</time>
      </trkpt>
      <trkpt lat="50.45336" lon="2.99272">
        <ele>42</ele>
        <time>2025-09-14T14:54:08Z</time>
      </trkpt>
      <trkpt lat="50.45337" lon="2.99272">
        <ele>42</ele>
        <time>2025-09-14T14:54:24Z</time>
      </trkpt>
      <trkpt lat="50.45342" lon="2.9928">
        <ele>41.4</ele>
        <time>2025-09-14T14:54:30Z</time>
      </trkpt>
      <trkpt lat="50.4535" lon="2.99292">
        <ele>40.7</ele>
        <time>2025-09-14T14:54:40Z</time>
      </trkpt>
      <trkpt lat="50.45355" lon="2.99302">
        <ele>39.9</ele>
        <time>2025-09-14T14:54:48Z</time>
      </trkpt>
      <trkpt lat="50.45358" lon="2.99311">
        <ele>39.5</ele>
        <time>2025-09-14T14:54:55Z</time>
      </trkpt>
      <trkpt lat="50.45363" lon="2.99315">
        <ele>38.8</ele>
        <time>2025-09-14T14:55:01Z</time>
      </trkpt>
      <trkpt lat="50.45375" lon="2.9932">
        <ele>37.4</ele>
        <time>2025-09-14T14:55:11Z</time>
      </trkpt>
      <trkpt lat="50.45385" lon="2.9933">
        <ele>35.8</ele>
        <time>2025-09-14T14:55:19Z</time>
      </trkpt>
      <trkpt lat="50.45388" lon="2.99333">
        <ele>35.2</ele>
        <time>2025-09-14T14:55:22Z</time>
      </trkpt>
      <trkpt lat="50.454" lon="2.99335">
        <ele>34.6</ele>
        <time>2025-09-14T14:55:31Z</time>
      </trkpt>
      <trkpt lat="50.45408" lon="2.99337">
        <ele>34.2</ele>
        <time>2025-09-14T14:55:38Z</time>
      </trkpt>
      <trkpt lat="50.45413" lon="2.99334">
        <ele>34.1</ele>
        <time>2025-09-14T14:55:42Z</time>
      </trkpt>
      <trkpt lat="50.45422" lon="2.99331">
        <ele>34</ele>
        <time>2025-09-14T14:55:50Z</time>
      </trkpt>
      <trkpt lat="50.45432" lon="2.99326">
        <ele>33.7</ele>
        <time>2025-09-14T14:55:58Z</time>
      </trkpt>
      <trkpt lat="50.45441" lon="2.99318">
        <ele>33.3</ele>
        <time>2025-09-14T14:56:06Z</time>
      </trkpt>
      <trkpt lat="50.45445" lon="2.99314">
        <ele>33</ele>
        <time>2025-09-14T14:56:10Z</time>
      </trkpt>
      <trkpt lat="50.45449" lon="2.99309">
        <ele>33</ele>
        <time>2025-09-14T14:56:14Z</time>
      </trkpt>
      <trkpt lat="50.45456" lon="2.99301">
        <ele>33.1</ele>
        <time>2025-09-14T14:56:21Z</time>
      </trkpt>
      <trkpt lat="50.45463" lon="2.99291">
        <ele>33.2</ele>
        <time>2025-09-14T14:56:29Z</time>
      </trkpt>
      <trkpt lat="50.45468" lon="2.99284">
        <ele>33.1</ele>
        <time>2025-09-14T14:56:34Z</time>
      </trkpt>
      <trkpt lat="50.4548" lon="2.99281">
        <ele>32.7</ele>
        <time>2025-09-14T14:56:43Z</time>
      </trkpt>
      <trkpt lat="50.45486" lon="2.99286">
        <ele>32.5</ele>
        <time>2025-09-14T14:56:48Z</time>
      </trkpt>
      <trkpt lat="50.45491" lon="2.99295">
        <ele>32.3</ele>
        <time>2025-09-14T14:56:54Z</time>
      </trkpt>
      <trkpt lat="50.455" lon="2.99303">
        <ele>32</ele>
        <time>2025-09-14T14:57:03Z</time>
      </trkpt>
      <trkpt lat="50.45503" lon="2.99305">
        <ele>31.9</ele>
        <time>2025-09-14T14:57:05Z</time>
      </trkpt>
      <trkpt lat="50.45506" lon="2.993">
        <ele>31.7</ele>
        <time>2025-09-14T14:57:10Z</time>
      </trkpt>
      <trkpt lat="50.45509" lon="2.99291">
        <ele>31.4</ele>
        <time>2025-09-14T14:57:16Z</time>
      </trkpt>
      <trkpt lat="50.4551" lon="2.99285">
        <ele>31.1</ele>
        <time>2025-09-14T14:57:24Z</time>
      </trkpt>
      <trkpt lat="50.45511" lon="2.99286">
        <ele>31</ele>
        <time>2025-09-14T14:57:37Z</time>
      </trkpt>
      <trkpt lat="50.4551" lon="2.99288">
        <ele>31.2</ele>
        <time>2025-09-14T14:57:44Z</time>
      </trkpt>
      <trkpt lat="50.4551" lon="2.99288">
        <ele>31.2</ele>
        <time>2025-09-14T14:58:04Z</time>
      </trkpt>
      <trkpt lat="50.45511" lon="2.9929">
        <ele>31.1</ele>
        <time>2025-09-14T14:58:13Z</time>
      </trkpt>
      <trkpt lat="50.45511" lon="2.99293">
        <ele>31.3</ele>
        <time>2025-09-14T14:58:16Z</time>
      </trkpt>
      <trkpt lat="50.45508" lon="2.99307">
        <ele>31.7</ele>
        <time>2025-09-14T14:58:26Z</time>
      </trkpt>
      <trkpt lat="50.45506" lon="2.99307">
        <ele>31.8</ele>
        <time>2025-09-14T14:58:32Z</time>
      </trkpt>
      <trkpt lat="50.45506" lon="2.99306">
        <ele>31.8</ele>
        <time>2025-09-14T14:58:45Z</time>
      </trkpt>
      <trkpt lat="50.45506" lon="2.99306">
        <ele>31.8</ele>
        <time>2025-09-14T14:59:01Z</time>
      </trkpt>
      <trkpt lat="50.45506" lon="2.99306">
        <ele>31.8</ele>
        <time>2025-09-14T14:59:11Z</time>
      </trkpt>
      <trkpt lat="50.45506" lon="2.99306">
        <ele>31.8</ele>
        <time>2025-09-14T14:59:28Z</time>
      </trkpt>
      <trkpt lat="50.45506" lon="2.99306">
        <ele>31.8</ele>
        <time>2025-09-14T14:59:46Z</time>
      </trkpt>
      <trkpt lat="50.45507" lon="2.99306">
        <ele>31.8</ele>
        <time>2025-09-14T15:00:02Z</time>
      </trkpt>
      <trkpt lat="50.45506" lon="2.99305">
        <ele>31.8</ele>
        <time>2025-09-14T15:00:19Z</time>
      </trkpt>
      <trkpt lat="50.45506" lon="2.99305">
        <ele>31.8</ele>
        <time>2025-09-14T15:00:36Z</time>
      </trkpt>
      <trkpt lat="50.45506" lon="2.99305">
        <ele>31.8</ele>
        <time>2025-09-14T15:00:46Z</time>
      </trkpt>
      <trkpt lat="50.45508" lon="2.9931">
        <ele>31.8</ele>
        <time>2025-09-14T15:00:53Z</time>
      </trkpt>
      <trkpt lat="50.4551" lon="2.99313">
        <ele>31.7</ele>
        <time>2025-09-14T15:00:56Z</time>
      </trkpt>
      <trkpt lat="50.45513" lon="2.9932">
        <ele>31.8</ele>
        <time>2025-09-14T15:01:02Z</time>
      </trkpt>
      <trkpt lat="50.45518" lon="2.99333">
        <ele>32</ele>
        <time>2025-09-14T15:01:11Z</time>
      </trkpt>
      <trkpt lat="50.45521" lon="2.99344">
        <ele>31.6</ele>
        <time>2025-09-14T15:01:17Z</time>
      </trkpt>
      <trkpt lat="50.45521" lon="2.99359">
        <ele>31.1</ele>
        <time>2025-09-14T15:01:26Z</time>
      </trkpt>
      <trkpt lat="50.4552" lon="2.99375">
        <ele>30.7</ele>
        <time>2025-09-14T15:01:34Z</time>
      </trkpt>
      <trkpt lat="50.45519" lon="2.9939">
        <ele>30.3</ele>
        <time>2025-09-14T15:01:42Z</time>
      </trkpt>
      <trkpt lat="50.45519" lon="2.99399">
        <ele>30.6</ele>
        <time>2025-09-14T15:01:47Z</time>
      </trkpt>
      <trkpt lat="50.45521" lon="2.99417">
        <ele>31</ele>
        <time>2025-09-14T15:01:56Z</time>
      </trkpt>
      <trkpt lat="50.45521" lon="2.99419">
        <ele>30.9</ele>
        <time>2025-09-14T15:01:57Z</time>
      </trkpt>
      <trkpt lat="50.45521" lon="2.99434">
        <ele>30.5</ele>
        <time>2025-09-14T15:02:05Z</time>
      </trkpt>
      <trkpt lat="50.45523" lon="2.99448">
        <ele>30</ele>
        <time>2025-09-14T15:02:13Z</time>
      </trkpt>
      <trkpt lat="50.45526" lon="2.99462">
        <ele>29.5</ele>
        <time>2025-09-14T15:02:21Z</time>
      </trkpt>
      <trkpt lat="50.45532" lon="2.99479">
        <ele>29.1</ele>
        <time>2025-09-14T15:02:31Z</time>
      </trkpt>
      <trkpt lat="50.45537" lon="2.99489">
        <ele>29.3</ele>
        <time>2025-09-14T15:02:38Z</time>
      </trkpt>
      <trkpt lat="50.45542" lon="2.99501">
        <ele>29.5</ele>
        <time>2025-09-14T15:02:46Z</time>
      </trkpt>
      <trkpt lat="50.45547" lon="2.99506">
        <ele>29.3</ele>
        <time>2025-09-14T15:02:50Z</time>
      </trkpt>
      <trkpt lat="50.45557" lon="2.99525">
        <ele>29</ele>
        <time>2025-09-14T15:03:02Z</time>
      </trkpt>
      <trkpt lat="50.45563" lon="2.99537">
        <ele>28.5</ele>
        <time>2025-09-14T15:03:10Z</time>
      </trkpt>
      <trkpt lat="50.45567" lon="2.99548">
        <ele>28.2</ele>
        <time>2025-09-14T15:03:18Z</time>
      </trkpt>
      <trkpt lat="50.45571" lon="2.99562">
        <ele>27.8</ele>
        <time>2025-09-14T15:03:26Z</time>
      </trkpt>
      <trkpt lat="50.45575" lon="2.99579">
        <ele>27.2</ele>
        <time>2025-09-14T15:03:36Z</time>
      </trkpt>
      <trkpt lat="50.45584" lon="2.99587">
        <ele>27</ele>
        <time>2025-09-14T15:03:45Z</time>
      </trkpt>
      <trkpt lat="50.45591" lon="2.99588">
        <ele>27</ele>
        <time>2025-09-14T15:03:51Z</time>
      </trkpt>
      <trkpt lat="50.45601" lon="2.99586">
        <ele>27</ele>
        <time>2025-09-14T15:03:58Z</time>
      </trkpt>
      <trkpt lat="50.45612" lon="2.99586">
        <ele>27</ele>
        <time>2025-09-14T15:04:07Z</time>
      </trkpt>
      <trkpt lat="50.45623" lon="2.99584">
        <ele>26.6</ele>
        <time>2025-09-14T15:04:15Z</time>
      </trkpt>
      <trkpt lat="50.45632" lon="2.99582">
        <ele>26.3</ele>
        <time>2025-09-14T15:04:23Z</time>
      </trkpt>
      <trkpt lat="50.45644" lon="2.9958">
        <ele>26.3</ele>
        <time>2025-09-14T15:04:32Z</time>
      </trkpt>
      <trkpt lat="50.45656" lon="2.99579">
        <ele>26.7</ele>
        <time>2025-09-14T15:04:42Z</time>
      </trkpt>
      <trkpt lat="50.45664" lon="2.99577">
        <ele>26.9</ele>
        <time>2025-09-14T15:04:49Z</time>
      </trkpt>
      <trkpt lat="50.45673" lon="2.99575">
        <ele>27</ele>
        <time>2025-09-14T15:04:56Z</time>
      </trkpt>
      <trkpt lat="50.45682" lon="2.99573">
        <ele>27</ele>
        <time>2025-09-14T15:05:04Z</time>
      </trkpt>
      <trkpt lat="50.4569" lon="2.99571">
        <ele>27</ele>
        <time>2025-09-14T15:05:11Z</time>
      </trkpt>
      <trkpt lat="50.45696" lon="2.99568">
        <ele>27</ele>
        <time>2025-09-14T15:05:16Z</time>
      </trkpt>
      <trkpt lat="50.45699" lon="2.9956">
        <ele>27</ele>
        <time>2025-09-14T15:05:22Z</time>
      </trkpt>
      <trkpt lat="50.457" lon="2.99549">
        <ele>26.8</ele>
        <time>2025-09-14T15:05:28Z</time>
      </trkpt>
      <trkpt lat="50.457" lon="2.99539">
        <ele>26.5</ele>
        <time>2025-09-14T15:05:34Z</time>
      </trkpt>
      <trkpt lat="50.45696" lon="2.99526">
        <ele>26.1</ele>
        <time>2025-09-14T15:05:42Z</time>
      </trkpt>
      <trkpt lat="50.45693" lon="2.99521">
        <ele>26</ele>
        <time>2025-09-14T15:05:48Z</time>
      </trkpt>
      <trkpt lat="50.45691" lon="2.99516">
        <ele>26.1</ele>
        <time>2025-09-14T15:05:54Z</time>
      </trkpt>
      <trkpt lat="50.45687" lon="2.99504">
        <ele>26</ele>
        <time>2025-09-14T15:06:02Z</time>
      </trkpt>
      <trkpt lat="50.45685" lon="2.995">
        <ele>26</ele>
        <time>2025-09-14T15:06:05Z</time>
      </trkpt>
      <trkpt lat="50.45684" lon="2.99496">
        <ele>26</ele>
        <time>2025-09-14T15:06:07Z</time>
      </trkpt>
      <trkpt lat="50.45676" lon="2.99479">
        <ele>26</ele>
        <time>2025-09-14T15:06:15Z</time>
      </trkpt>
      <trkpt lat="50.45672" lon="2.99471">
        <ele>26</ele>
        <time>2025-09-14T15:06:20Z</time>
      </trkpt>
      <trkpt lat="50.45667" lon="2.9946">
        <ele>26</ele>
        <time>2025-09-14T15:06:27Z</time>
      </trkpt>
      <trkpt lat="50.45666" lon="2.99456">
        <ele>26</ele>
        <time>2025-09-14T15:06:29Z</time>
      </trkpt>
      <trkpt lat="50.4566" lon="2.99443">
        <ele>26.1</ele>
        <time>2025-09-14T15:06:37Z</time>
      </trkpt>
      <trkpt lat="50.45654" lon="2.99433">
        <ele>26.4</ele>
        <time>2025-09-14T15:06:44Z</time>
      </trkpt>
      <trkpt lat="50.45649" lon="2.99421">
        <ele>26.8</ele>
        <time>2025-09-14T15:06:51Z</time>
      </trkpt>
      <trkpt lat="50.45647" lon="2.99416">
        <ele>27</ele>
        <time>2025-09-14T15:06:54Z</time>
      </trkpt>
      <trkpt lat="50.45645" lon="2.99412">
        <ele>26.9</ele>
        <time>2025-09-14T15:06:57Z</time>
      </trkpt>
      <trkpt lat="50.45642" lon="2.99409">
        <ele>26.8</ele>
        <time>2025-09-14T15:07:00Z</time>
      </trkpt>
      <trkpt lat="50.45637" lon="2.99401">
        <ele>26.4</ele>
        <time>2025-09-14T15:07:07Z</time>
      </trkpt>
      <trkpt lat="50.45631" lon="2.99389">
        <ele>26</ele>
        <time>2025-09-14T15:07:15Z</time>
      </trkpt>
      <trkpt lat="50.45629" lon="2.9938">
        <ele>26.3</ele>
        <time>2025-09-14T15:07:19Z</time>
      </trkpt>
      <trkpt lat="50.45625" lon="2.99371">
        <ele>26.6</ele>
        <time>2025-09-14T15:07:23Z</time>
      </trkpt>
      <trkpt lat="50.4562" lon="2.99364">
        <ele>26.9</ele>
        <time>2025-09-14T15:07:27Z</time>
      </trkpt>
      <trkpt lat="50.45612" lon="2.99348">
        <ele>26.1</ele>
        <time>2025-09-14T15:07:37Z</time>
      </trkpt>
      <trkpt lat="50.45605" lon="2.9933">
        <ele>25.4</ele>
        <time>2025-09-14T15:07:45Z</time>
      </trkpt>
      <trkpt lat="50.45606" lon="2.99315">
        <ele>26.3</ele>
        <time>2025-09-14T15:07:53Z</time>
      </trkpt>
      <trkpt lat="50.45607" lon="2.99313">
        <ele>26.4</ele>
        <time>2025-09-14T15:07:55Z</time>
      </trkpt>
      <trkpt lat="50.45613" lon="2.99308">
        <ele>26.9</ele>
        <time>2025-09-14T15:08:01Z</time>
      </trkpt>
      <trkpt lat="50.45617" lon="2.99303">
        <ele>27.1</ele>
        <time>2025-09-14T15:08:05Z</time>
      </trkpt>
      <trkpt lat="50.4562" lon="2.99292">
        <ele>26.7</ele>
        <time>2025-09-14T15:08:12Z</time>
      </trkpt>
      <trkpt lat="50.45621" lon="2.9929">
        <ele>26.6</ele>
        <time>2025-09-14T15:08:14Z</time>
      </trkpt>
      <trkpt lat="50.45626" lon="2.99277">
        <ele>26</ele>
        <time>2025-09-14T15:08:22Z</time>
      </trkpt>
      <trkpt lat="50.45628" lon="2.99271">
        <ele>26.1</ele>
        <time>2025-09-14T15:08:25Z</time>
      </trkpt>
      <trkpt lat="50.45628" lon="2.99259">
        <ele>26.4</ele>
        <time>2025-09-14T15:08:31Z</time>
      </trkpt>
      <trkpt lat="50.45628" lon="2.99245">
        <ele>26.6</ele>
        <time>2025-09-14T15:08:38Z</time>
      </trkpt>
      <trkpt lat="50.45626" lon="2.99233">
        <ele>26.5</ele>
        <time>2025-09-14T15:08:44Z</time>
      </trkpt>
      <trkpt lat="50.45625" lon="2.99216">
        <ele>26.5</ele>
        <time>2025-09-14T15:08:53Z</time>
      </trkpt>
      <trkpt lat="50.45624" lon="2.99213">
        <ele>26.5</ele>
        <time>2025-09-14T15:08:55Z</time>
      </trkpt>
      <trkpt lat="50.45624" lon="2.99209">
        <ele>26.5</ele>
        <time>2025-09-14T15:08:57Z</time>
      </trkpt>
      <trkpt lat="50.45625" lon="2.99197">
        <ele>26.5</ele>
        <time>2025-09-14T15:09:04Z</time>
      </trkpt>
      <trkpt lat="50.45625" lon="2.9919">
        <ele>26.4</ele>
        <time>2025-09-14T15:09:07Z</time>
      </trkpt>
      <trkpt lat="50.45622" lon="2.99184">
        <ele>26.2</ele>
        <time>2025-09-14T15:09:12Z</time>
      </trkpt>
      <trkpt lat="50.45621" lon="2.99178">
        <ele>26.1</ele>
        <time>2025-09-14T15:09:16Z</time>
      </trkpt>
      <trkpt lat="50.4562" lon="2.99164">
        <ele>26</ele>
        <time>2025-09-14T15:09:24Z</time>
      </trkpt>
      <trkpt lat="50.4562" lon="2.99159">
        <ele>26</ele>
        <time>2025-09-14T15:09:27Z</time>
      </trkpt>
      <trkpt lat="50.4562" lon="2.99145">
        <ele>26</ele>
        <time>2025-09-14T15:09:34Z</time>
      </trkpt>
      <trkpt lat="50.45621" lon="2.99138">
        <ele>26</ele>
        <time>2025-09-14T15:09:38Z</time>
      </trkpt>
      <trkpt lat="50.4562" lon="2.9913">
        <ele>26.3</ele>
        <time>2025-09-14T15:09:42Z</time>
      </trkpt>
      <trkpt lat="50.45622" lon="2.99114">
        <ele>26.9</ele>
        <time>2025-09-14T15:09:49Z</time>
      </trkpt>
      <trkpt lat="50.45622" lon="2.99112">
        <ele>27</ele>
        <time>2025-09-14T15:09:50Z</time>
      </trkpt>
      <trkpt lat="50.45624" lon="2.99096">
        <ele>27.3</ele>
        <time>2025-09-14T15:09:58Z</time>
      </trkpt>
      <trkpt lat="50.45623" lon="2.9908">
        <ele>27.6</ele>
        <time>2025-09-14T15:10:06Z</time>
      </trkpt>
      <trkpt lat="50.45622" lon="2.99077">
        <ele>27.6</ele>
        <time>2025-09-14T15:10:08Z</time>
      </trkpt>
      <trkpt lat="50.4562" lon="2.99062">
        <ele>27.7</ele>
        <time>2025-09-14T15:10:16Z</time>
      </trkpt>
      <trkpt lat="50.45619" lon="2.99056">
        <ele>27.7</ele>
        <time>2025-09-14T15:10:19Z</time>
      </trkpt>
      <trkpt lat="50.45619" lon="2.99052">
        <ele>27.5</ele>
        <time>2025-09-14T15:10:21Z</time>
      </trkpt>
      <trkpt lat="50.45618" lon="2.99037">
        <ele>26.6</ele>
        <time>2025-09-14T15:10:28Z</time>
      </trkpt>
      <trkpt lat="50.45617" lon="2.9903">
        <ele>26.1</ele>
        <time>2025-09-14T15:10:32Z</time>
      </trkpt>
      <trkpt lat="50.45625" lon="2.99018">
        <ele>26</ele>
        <time>2025-09-14T15:10:40Z</time>
      </trkpt>
      <trkpt lat="50.45633" lon="2.99005">
        <ele>25.5</ele>
        <time>2025-09-14T15:10:48Z</time>
      </trkpt>
      <trkpt lat="50.45636" lon="2.98997">
        <ele>25.2</ele>
        <time>2025-09-14T15:10:53Z</time>
      </trkpt>
      <trkpt lat="50.45637" lon="2.98986">
        <ele>25.1</ele>
        <time>2025-09-14T15:10:58Z</time>
      </trkpt>
      <trkpt lat="50.45636" lon="2.98974">
        <ele>25.1</ele>
        <time>2025-09-14T15:11:04Z</time>
      </trkpt>
      <trkpt lat="50.45631" lon="2.98963">
        <ele>25.2</ele>
        <time>2025-09-14T15:11:11Z</time>
      </trkpt>
      <trkpt lat="50.45626" lon="2.98952">
        <ele>25.1</ele>
        <time>2025-09-14T15:11:19Z</time>
      </trkpt>
      <trkpt lat="50.45618" lon="2.98942">
        <ele>24.9</ele>
        <time>2025-09-14T15:11:27Z</time>
      </trkpt>
      <trkpt lat="50.45612" lon="2.98931">
        <ele>24.5</ele>
        <time>2025-09-14T15:11:35Z</time>
      </trkpt>
      <trkpt lat="50.45607" lon="2.98919">
        <ele>24.6</ele>
        <time>2025-09-14T15:11:43Z</time>
      </trkpt>
      <trkpt lat="50.45604" lon="2.98914">
        <ele>24.7</ele>
        <time>2025-09-14T15:11:46Z</time>
      </trkpt>
      <trkpt lat="50.45597" lon="2.98907">
        <ele>25.3</ele>
        <time>2025-09-14T15:11:52Z</time>
      </trkpt>
      <trkpt lat="50.45592" lon="2.98899">
        <ele>25.7</ele>
        <time>2025-09-14T15:11:59Z</time>
      </trkpt>
      <trkpt lat="50.45589" lon="2.98895">
        <ele>25.8</ele>
        <time>2025-09-14T15:12:06Z</time>
      </trkpt>
      <trkpt lat="50.45588" lon="2.9889">
        <ele>25.7</ele>
        <time>2025-09-14T15:12:09Z</time>
      </trkpt>
      <trkpt lat="50.45583" lon="2.98877">
        <ele>25.2</ele>
        <time>2025-09-14T15:12:16Z</time>
      </trkpt>
      <trkpt lat="50.45583" lon="2.98865">
        <ele>24.4</ele>
        <time>2025-09-14T15:12:23Z</time>
      </trkpt>
      <trkpt lat="50.45582" lon="2.98851">
        <ele>24.6</ele>
        <time>2025-09-14T15:12:30Z</time>
      </trkpt>
      <trkpt lat="50.4558" lon="2.98843">
        <ele>25.1</ele>
        <time>2025-09-14T15:12:34Z</time>
      </trkpt>
      <trkpt lat="50.45575" lon="2.98828">
        <ele>26</ele>
        <time>2025-09-14T15:12:41Z</time>
      </trkpt>
      <trkpt lat="50.45575" lon="2.98822">
        <ele>25.9</ele>
        <time>2025-09-14T15:12:45Z</time>
      </trkpt>
      <trkpt lat="50.45573" lon="2.98813">
        <ele>26</ele>
        <time>2025-09-14T15:12:50Z</time>
      </trkpt>
      <trkpt lat="50.45572" lon="2.98796">
        <ele>25.9</ele>
        <time>2025-09-14T15:12:59Z</time>
      </trkpt>
      <trkpt lat="50.4557" lon="2.98785">
        <ele>26</ele>
        <time>2025-09-14T15:13:05Z</time>
      </trkpt>
      <trkpt lat="50.45569" lon="2.98783">
        <ele>26.2</ele>
        <time>2025-09-14T15:13:06Z</time>
      </trkpt>
      <trkpt lat="50.45566" lon="2.98775">
        <ele>26.4</ele>
        <time>2025-09-14T15:13:10Z</time>
      </trkpt>
      <trkpt lat="50.45566" lon="2.98766">
        <ele>25.8</ele>
        <time>2025-09-14T15:13:15Z</time>
      </trkpt>
      <trkpt lat="50.45568" lon="2.98754">
        <ele>25.2</ele>
        <time>2025-09-14T15:13:22Z</time>
      </trkpt>
      <trkpt lat="50.45568" lon="2.98752">
        <ele>25.1</ele>
        <time>2025-09-14T15:13:23Z</time>
      </trkpt>
      <trkpt lat="50.45572" lon="2.98743">
        <ele>25</ele>
        <time>2025-09-14T15:13:29Z</time>
      </trkpt>
      <trkpt lat="50.45572" lon="2.98742">
        <ele>25</ele>
        <time>2025-09-14T15:13:35Z</time>
      </trkpt>
      <trkpt lat="50.45573" lon="2.98741">
        <ele>25</ele>
        <time>2025-09-14T15:13:46Z</time>
      </trkpt>
      <trkpt lat="50.45573" lon="2.98741">
        <ele>25</ele>
        <time>2025-09-14T15:13:55Z</time>
      </trkpt>
      <trkpt lat="50.45574" lon="2.98741">
        <ele>25</ele>
        <time>2025-09-14T15:13:57Z</time>
      </trkpt>
      <trkpt lat="50.4558" lon="2.98738">
        <ele>25</ele>
        <time>2025-09-14T15:14:02Z</time>
      </trkpt>
      <trkpt lat="50.45592" lon="2.98729">
        <ele>24.7</ele>
        <time>2025-09-14T15:14:12Z</time>
      </trkpt>
      <trkpt lat="50.45601" lon="2.9872">
        <ele>24.5</ele>
        <time>2025-09-14T15:14:21Z</time>
      </trkpt>
      <trkpt lat="50.4561" lon="2.9871">
        <ele>24.5</ele>
        <time>2025-09-14T15:14:29Z</time>
      </trkpt>
      <trkpt lat="50.45611" lon="2.98707">
        <ele>24.6</ele>
        <time>2025-09-14T15:14:31Z</time>
      </trkpt>
      <trkpt lat="50.45619" lon="2.98698">
        <ele>24.9</ele>
        <time>2025-09-14T15:14:38Z</time>
      </trkpt>
      <trkpt lat="50.45627" lon="2.98687">
        <ele>25</ele>
        <time>2025-09-14T15:14:46Z</time>
      </trkpt>
      <trkpt lat="50.45633" lon="2.98679">
        <ele>25</ele>
        <time>2025-09-14T15:14:52Z</time>
      </trkpt>
      <trkpt lat="50.45643" lon="2.98668">
        <ele>25</ele>
        <time>2025-09-14T15:15:01Z</time>
      </trkpt>
      <trkpt lat="50.45651" lon="2.98657">
        <ele>25</ele>
        <time>2025-09-14T15:15:10Z</time>
      </trkpt>
      <trkpt lat="50.45659" lon="2.98646">
        <ele>25</ele>
        <time>2025-09-14T15:15:18Z</time>
      </trkpt>
      <trkpt lat="50.45668" lon="2.98636">
        <ele>25</ele>
        <time>2025-09-14T15:15:27Z</time>
      </trkpt>
      <trkpt lat="50.45676" lon="2.98629">
        <ele>25.1</ele>
        <time>2025-09-14T15:15:34Z</time>
      </trkpt>
      <trkpt lat="50.45677" lon="2.98628">
        <ele>25.1</ele>
        <time>2025-09-14T15:15:35Z</time>
      </trkpt>
      <trkpt lat="50.45682" lon="2.98625">
        <ele>25.3</ele>
        <time>2025-09-14T15:15:39Z</time>
      </trkpt>
      <trkpt lat="50.45688" lon="2.98615">
        <ele>25.6</ele>
        <time>2025-09-14T15:15:48Z</time>
      </trkpt>
      <trkpt lat="50.45693" lon="2.98613">
        <ele>25.9</ele>
        <time>2025-09-14T15:15:52Z</time>
      </trkpt>
      <trkpt lat="50.45701" lon="2.9861">
        <ele>26</ele>
        <time>2025-09-14T15:16:00Z</time>
      </trkpt>
      <trkpt lat="50.45705" lon="2.98607">
        <ele>26</ele>
        <time>2025-09-14T15:16:06Z</time>
      </trkpt>
      <trkpt lat="50.45704" lon="2.986">
        <ele>25.9</ele>
        <time>2025-09-14T15:16:12Z</time>
      </trkpt>
      <trkpt lat="50.45702" lon="2.98597">
        <ele>25.8</ele>
        <time>2025-09-14T15:16:18Z</time>
      </trkpt>
      <trkpt lat="50.45702" lon="2.98597">
        <ele>25.8</ele>
        <time>2025-09-14T15:16:26Z</time>
      </trkpt>
      <trkpt lat="50.45701" lon="2.98597">
        <ele>25.7</ele>
        <time>2025-09-14T15:16:38Z</time>
      </trkpt>
      <trkpt lat="50.45701" lon="2.98596">
        <ele>25.7</ele>
        <time>2025-09-14T15:16:43Z</time>
      </trkpt>
      <trkpt lat="50.45702" lon="2.98595">
        <ele>25.7</ele>
        <time>2025-09-14T15:16:49Z</time>
      </trkpt>
      <trkpt lat="50.45702" lon="2.98594">
        <ele>25.7</ele>
        <time>2025-09-14T15:16:57Z</time>
      </trkpt>
      <trkpt lat="50.45702" lon="2.98593">
        <ele>25.7</ele>
        <time>2025-09-14T15:16:58Z</time>
      </trkpt>
      <trkpt lat="50.45707" lon="2.98579">
        <ele>25.9</ele>
        <time>2025-09-14T15:17:07Z</time>
      </trkpt>
      <trkpt lat="50.45706" lon="2.98566">
        <ele>25.9</ele>
        <time>2025-09-14T15:17:14Z</time>
      </trkpt>
      <trkpt lat="50.45706" lon="2.98556">
        <ele>25.8</ele>
        <time>2025-09-14T15:17:19Z</time>
      </trkpt>
      <trkpt lat="50.45704" lon="2.98554">
        <ele>25.7</ele>
        <time>2025-09-14T15:17:21Z</time>
      </trkpt>
      <trkpt lat="50.45704" lon="2.98551">
        <ele>25.7</ele>
        <time>2025-09-14T15:17:23Z</time>
      </trkpt>
      <trkpt lat="50.45704" lon="2.98546">
        <ele>25.7</ele>
        <time>2025-09-14T15:17:27Z</time>
      </trkpt>
      <trkpt lat="50.45703" lon="2.98534">
        <ele>25.6</ele>
        <time>2025-09-14T15:17:33Z</time>
      </trkpt>
      <trkpt lat="50.45703" lon="2.98524">
        <ele>25.6</ele>
        <time>2025-09-14T15:17:39Z</time>
      </trkpt>
      <trkpt lat="50.45703" lon="2.9852">
        <ele>25.6</ele>
        <time>2025-09-14T15:17:42Z</time>
      </trkpt>
      <trkpt lat="50.45702" lon="2.98508">
        <ele>25.5</ele>
        <time>2025-09-14T15:17:48Z</time>
      </trkpt>
      <trkpt lat="50.45702" lon="2.985">
        <ele>25.5</ele>
        <time>2025-09-14T15:17:53Z</time>
      </trkpt>
      <trkpt lat="50.457" lon="2.98491">
        <ele>25.3</ele>
        <time>2025-09-14T15:17:59Z</time>
      </trkpt>
      <trkpt lat="50.457" lon="2.98481">
        <ele>25.2</ele>
        <time>2025-09-14T15:18:05Z</time>
      </trkpt>
      <trkpt lat="50.45701" lon="2.98471">
        <ele>25.3</ele>
        <time>2025-09-14T15:18:11Z</time>
      </trkpt>
      <trkpt lat="50.45701" lon="2.98464">
        <ele>25.3</ele>
        <time>2025-09-14T15:18:15Z</time>
      </trkpt>
      <trkpt lat="50.45702" lon="2.98461">
        <ele>25.3</ele>
        <time>2025-09-14T15:18:17Z</time>
      </trkpt>
      <trkpt lat="50.45704" lon="2.98459">
        <ele>25.3</ele>
        <time>2025-09-14T15:18:19Z</time>
      </trkpt>
      <trkpt lat="50.45708" lon="2.98459">
        <ele>25.5</ele>
        <time>2025-09-14T15:18:23Z</time>
      </trkpt>
      <trkpt lat="50.45711" lon="2.98462">
        <ele>25.6</ele>
        <time>2025-09-14T15:18:26Z</time>
      </trkpt>
      <trkpt lat="50.45716" lon="2.98469">
        <ele>25.8</ele>
        <time>2025-09-14T15:18:33Z</time>
      </trkpt>
      <trkpt lat="50.45717" lon="2.98471">
        <ele>25.8</ele>
        <time>2025-09-14T15:18:35Z</time>
      </trkpt>
      <trkpt lat="50.45724" lon="2.98476">
        <ele>26.1</ele>
        <time>2025-09-14T15:18:43Z</time>
      </trkpt>
      <trkpt lat="50.45731" lon="2.9848">
        <ele>26.3</ele>
        <time>2025-09-14T15:18:50Z</time>
      </trkpt>
      <trkpt lat="50.45739" lon="2.98484">
        <ele>26.4</ele>
        <time>2025-09-14T15:18:57Z</time>
      </trkpt>
      <trkpt lat="50.45746" lon="2.98488">
        <ele>26.6</ele>
        <time>2025-09-14T15:19:04Z</time>
      </trkpt>
      <trkpt lat="50.45751" lon="2.98491">
        <ele>26.7</ele>
        <time>2025-09-14T15:19:10Z</time>
      </trkpt>
      <trkpt lat="50.45753" lon="2.98492">
        <ele>26.7</ele>
        <time>2025-09-14T15:19:12Z</time>
      </trkpt>
      <trkpt lat="50.45754" lon="2.98494">
        <ele>26.7</ele>
        <time>2025-09-14T15:19:14Z</time>
      </trkpt>
      <trkpt lat="50.45761" lon="2.98497">
        <ele>26.6</ele>
        <time>2025-09-14T15:19:21Z</time>
      </trkpt>
      <trkpt lat="50.4577" lon="2.98502">
        <ele>26.4</ele>
        <time>2025-09-14T15:19:30Z</time>
      </trkpt>
      <trkpt lat="50.45774" lon="2.98504">
        <ele>26.4</ele>
        <time>2025-09-14T15:19:34Z</time>
      </trkpt>
      <trkpt lat="50.45778" lon="2.98508">
        <ele>26.6</ele>
        <time>2025-09-14T15:19:39Z</time>
      </trkpt>
      <trkpt lat="50.45784" lon="2.9851">
        <ele>26.7</ele>
        <time>2025-09-14T15:19:44Z</time>
      </trkpt>
      <trkpt lat="50.45791" lon="2.98513">
        <ele>27</ele>
        <time>2025-09-14T15:19:51Z</time>
      </trkpt>
      <trkpt lat="50.45797" lon="2.98516">
        <ele>27.2</ele>
        <time>2025-09-14T15:19:57Z</time>
      </trkpt>
      <trkpt lat="50.45803" lon="2.98522">
        <ele>27.6</ele>
        <time>2025-09-14T15:20:04Z</time>
      </trkpt>
      <trkpt lat="50.45813" lon="2.98526">
        <ele>27.7</ele>
        <time>2025-09-14T15:20:13Z</time>
      </trkpt>
      <trkpt lat="50.45819" lon="2.98529">
        <ele>27.5</ele>
        <time>2025-09-14T15:20:20Z</time>
      </trkpt>
      <trkpt lat="50.4582" lon="2.98529">
        <ele>27.5</ele>
        <time>2025-09-14T15:20:21Z</time>
      </trkpt>
      <trkpt lat="50.45826" lon="2.98532">
        <ele>27.4</ele>
        <time>2025-09-14T15:20:27Z</time>
      </trkpt>
      <trkpt lat="50.45828" lon="2.98534">
        <ele>27.4</ele>
        <time>2025-09-14T15:20:29Z</time>
      </trkpt>
      <trkpt lat="50.45832" lon="2.98535">
        <ele>27.3</ele>
        <time>2025-09-14T15:20:33Z</time>
      </trkpt>
      <trkpt lat="50.4584" lon="2.9854">
        <ele>27.4</ele>
        <time>2025-09-14T15:20:41Z</time>
      </trkpt>
      <trkpt lat="50.45844" lon="2.98543">
        <ele>27.5</ele>
        <time>2025-09-14T15:20:45Z</time>
      </trkpt>
      <trkpt lat="50.45851" lon="2.98546">
        <ele>27.7</ele>
        <time>2025-09-14T15:20:53Z</time>
      </trkpt>
      <trkpt lat="50.45853" lon="2.98547">
        <ele>27.7</ele>
        <time>2025-09-14T15:20:55Z</time>
      </trkpt>
      <trkpt lat="50.45861" lon="2.98552">
        <ele>27.9</ele>
        <time>2025-09-14T15:21:02Z</time>
      </trkpt>
      <trkpt lat="50.45868" lon="2.98556">
        <ele>27.7</ele>
        <time>2025-09-14T15:21:09Z</time>
      </trkpt>
      <trkpt lat="50.45869" lon="2.98556">
        <ele>27.7</ele>
        <time>2025-09-14T15:21:10Z</time>
      </trkpt>
      <trkpt lat="50.45874" lon="2.98556">
        <ele>27.6</ele>
        <time>2025-09-14T15:21:14Z</time>
      </trkpt>
      <trkpt lat="50.45883" lon="2.98563">
        <ele>27.4</ele>
        <time>2025-09-14T15:21:23Z</time>
      </trkpt>
      <trkpt lat="50.45889" lon="2.98566">
        <ele>27.4</ele>
        <time>2025-09-14T15:21:28Z</time>
      </trkpt>
      <trkpt lat="50.45891" lon="2.98566">
        <ele>27.4</ele>
        <time>2025-09-14T15:21:30Z</time>
      </trkpt>
      <trkpt lat="50.45893" lon="2.98568">
        <ele>27.4</ele>
        <time>2025-09-14T15:21:32Z</time>
      </trkpt>
      <trkpt lat="50.45901" lon="2.98572">
        <ele>27.6</ele>
        <time>2025-09-14T15:21:40Z</time>
      </trkpt>
      <trkpt lat="50.45906" lon="2.98575">
        <ele>27.7</ele>
        <time>2025-09-14T15:21:46Z</time>
      </trkpt>
      <trkpt lat="50.45907" lon="2.98575">
        <ele>27.7</ele>
        <time>2025-09-14T15:21:47Z</time>
      </trkpt>
      <trkpt lat="50.45914" lon="2.98579">
        <ele>27.8</ele>
        <time>2025-09-14T15:21:53Z</time>
      </trkpt>
      <trkpt lat="50.45924" lon="2.98583">
        <ele>28</ele>
        <time>2025-09-14T15:22:02Z</time>
      </trkpt>
      <trkpt lat="50.45935" lon="2.98588">
        <ele>28</ele>
        <time>2025-09-14T15:22:12Z</time>
      </trkpt>
      <trkpt lat="50.45946" lon="2.98594">
        <ele>28</ele>
        <time>2025-09-14T15:22:22Z</time>
      </trkpt>
      <trkpt lat="50.45949" lon="2.98595">
        <ele>28</ele>
        <time>2025-09-14T15:22:25Z</time>
      </trkpt>
      <trkpt lat="50.45956" lon="2.98598">
        <ele>28</ele>
        <time>2025-09-14T15:22:31Z</time>
      </trkpt>
      <trkpt lat="50.45966" lon="2.986">
        <ele>28</ele>
        <time>2025-09-14T15:22:40Z</time>
      </trkpt>
      <trkpt lat="50.45977" lon="2.98602">
        <ele>28</ele>
        <time>2025-09-14T15:22:49Z</time>
      </trkpt>
      <trkpt lat="50.45986" lon="2.98604">
        <ele>28</ele>
        <time>2025-09-14T15:22:57Z</time>
      </trkpt>
      <trkpt lat="50.45995" lon="2.98605">
        <ele>28</ele>
        <time>2025-09-14T15:23:04Z</time>
      </trkpt>
      <trkpt lat="50.45997" lon="2.98606">
        <ele>28</ele>
        <time>2025-09-14T15:23:06Z</time>
      </trkpt>
      <trkpt lat="50.46008" lon="2.98606">
        <ele>28</ele>
        <time>2025-09-14T15:23:16Z</time>
      </trkpt>
      <trkpt lat="50.46018" lon="2.98606">
        <ele>28</ele>
        <time>2025-09-14T15:23:25Z</time>
      </trkpt>
      <trkpt lat="50.46019" lon="2.98605">
        <ele>28</ele>
        <time>2025-09-14T15:23:26Z</time>
      </trkpt>
      <trkpt lat="50.46021" lon="2.98604">
        <ele>28</ele>
        <time>2025-09-14T15:23:28Z</time>
      </trkpt>
      <trkpt lat="50.46028" lon="2.98604">
        <ele>28</ele>
        <time>2025-09-14T15:23:35Z</time>
      </trkpt>
      <trkpt lat="50.4603" lon="2.98602">
        <ele>28.1</ele>
        <time>2025-09-14T15:23:38Z</time>
      </trkpt>
      <trkpt lat="50.46042" lon="2.986">
        <ele>28.3</ele>
        <time>2025-09-14T15:23:49Z</time>
      </trkpt>
      <trkpt lat="50.46045" lon="2.98599">
        <ele>28.3</ele>
        <time>2025-09-14T15:23:52Z</time>
      </trkpt>
      <trkpt lat="50.46054" lon="2.98596">
        <ele>28.4</ele>
        <time>2025-09-14T15:24:00Z</time>
      </trkpt>
      <trkpt lat="50.4606" lon="2.98594">
        <ele>28.5</ele>
        <time>2025-09-14T15:24:06Z</time>
      </trkpt>
      <trkpt lat="50.46068" lon="2.98591">
        <ele>28.6</ele>
        <time>2025-09-14T15:24:14Z</time>
      </trkpt>
      <trkpt lat="50.46077" lon="2.98586">
        <ele>28.8</ele>
        <time>2025-09-14T15:24:24Z</time>
      </trkpt>
      <trkpt lat="50.46078" lon="2.98586">
        <ele>28.8</ele>
        <time>2025-09-14T15:24:25Z</time>
      </trkpt>
      <trkpt lat="50.46089" lon="2.98585">
        <ele>28.8</ele>
        <time>2025-09-14T15:24:35Z</time>
      </trkpt>
      <trkpt lat="50.46096" lon="2.98587">
        <ele>28.6</ele>
        <time>2025-09-14T15:24:42Z</time>
      </trkpt>
      <trkpt lat="50.46105" lon="2.98591">
        <ele>28.4</ele>
        <time>2025-09-14T15:24:50Z</time>
      </trkpt>
      <trkpt lat="50.46111" lon="2.98596">
        <ele>28.4</ele>
        <time>2025-09-14T15:24:57Z</time>
      </trkpt>
      <trkpt lat="50.46115" lon="2.98598">
        <ele>28.6</ele>
        <time>2025-09-14T15:25:00Z</time>
      </trkpt>
      <trkpt lat="50.46124" lon="2.98608">
        <ele>28.9</ele>
        <time>2025-09-14T15:25:10Z</time>
      </trkpt>
      <trkpt lat="50.46132" lon="2.98616">
        <ele>29</ele>
        <time>2025-09-14T15:25:18Z</time>
      </trkpt>
      <trkpt lat="50.46135" lon="2.9862">
        <ele>29</ele>
        <time>2025-09-14T15:25:21Z</time>
      </trkpt>
      <trkpt lat="50.46136" lon="2.98623">
        <ele>29</ele>
        <time>2025-09-14T15:25:23Z</time>
      </trkpt>
      <trkpt lat="50.46142" lon="2.9863">
        <ele>28.9</ele>
        <time>2025-09-14T15:25:30Z</time>
      </trkpt>
      <trkpt lat="50.46147" lon="2.98634">
        <ele>28.7</ele>
        <time>2025-09-14T15:25:35Z</time>
      </trkpt>
      <trkpt lat="50.46157" lon="2.98647">
        <ele>28.4</ele>
        <time>2025-09-14T15:25:46Z</time>
      </trkpt>
      <trkpt lat="50.4616" lon="2.98652">
        <ele>28.2</ele>
        <time>2025-09-14T15:25:50Z</time>
      </trkpt>
      <trkpt lat="50.46167" lon="2.98662">
        <ele>28</ele>
        <time>2025-09-14T15:25:59Z</time>
      </trkpt>
      <trkpt lat="50.46172" lon="2.98669">
        <ele>28</ele>
        <time>2025-09-14T15:26:08Z</time>
      </trkpt>
      <trkpt lat="50.46173" lon="2.98677">
        <ele>28</ele>
        <time>2025-09-14T15:26:16Z</time>
      </trkpt>
      <trkpt lat="50.46174" lon="2.98679">
        <ele>28</ele>
        <time>2025-09-14T15:26:22Z</time>
      </trkpt>
      <trkpt lat="50.46175" lon="2.98678">
        <ele>28</ele>
        <time>2025-09-14T15:26:36Z</time>
      </trkpt>
      <trkpt lat="50.46175" lon="2.98679">
        <ele>28</ele>
        <time>2025-09-14T15:26:46Z</time>
      </trkpt>
      <trkpt lat="50.46175" lon="2.98679">
        <ele>28</ele>
        <time>2025-09-14T15:26:54Z</time>
      </trkpt>
      <trkpt lat="50.46175" lon="2.98681">
        <ele>28</ele>
        <time>2025-09-14T15:27:02Z</time>
      </trkpt>
      <trkpt lat="50.46175" lon="2.98681">
        <ele>28</ele>
        <time>2025-09-14T15:27:10Z</time>
      </trkpt>
      <trkpt lat="50.46175" lon="2.98681">
        <ele>28</ele>
        <time>2025-09-14T15:27:17Z</time>
      </trkpt>
      <trkpt lat="50.46174" lon="2.98681">
        <ele>28</ele>
        <time>2025-09-14T15:27:24Z</time>
      </trkpt>
      <trkpt lat="50.46174" lon="2.9868">
        <ele>28</ele>
        <time>2025-09-14T15:27:39Z</time>
      </trkpt>
      <trkpt lat="50.46174" lon="2.98681">
        <ele>28</ele>
        <time>2025-09-14T15:27:50Z</time>
      </trkpt>
      <trkpt lat="50.46173" lon="2.98681">
        <ele>28</ele>
        <time>2025-09-14T15:28:06Z</time>
      </trkpt>
      <trkpt lat="50.46171" lon="2.98681">
        <ele>28</ele>
        <time>2025-09-14T15:28:26Z</time>
      </trkpt>
      <trkpt lat="50.4617" lon="2.98681">
        <ele>28</ele>
        <time>2025-09-14T15:28:42Z</time>
      </trkpt>
      <trkpt lat="50.46171" lon="2.98682">
        <ele>28</ele>
        <time>2025-09-14T15:29:02Z</time>
      </trkpt>
      <trkpt lat="50.46172" lon="2.98682">
        <ele>28</ele>
        <time>2025-09-14T15:29:20Z</time>
      </trkpt>
      <trkpt lat="50.46172" lon="2.98681">
        <ele>28</ele>
        <time>2025-09-14T15:29:37Z</time>
      </trkpt>
      <trkpt lat="50.46172" lon="2.98681">
        <ele>28</ele>
        <time>2025-09-14T15:29:55Z</time>
      </trkpt>
      <trkpt lat="50.46172" lon="2.9868">
        <ele>28</ele>
        <time>2025-09-14T15:30:14Z</time>
      </trkpt>
      <trkpt lat="50.46171" lon="2.9868">
        <ele>28</ele>
        <time>2025-09-14T15:30:30Z</time>
      </trkpt>
      <trkpt lat="50.46169" lon="2.98682">
        <ele>28</ele>
        <time>2025-09-14T15:30:49Z</time>
      </trkpt>
      <trkpt lat="50.46168" lon="2.98683">
        <ele>28</ele>
        <time>2025-09-14T15:31:06Z</time>
      </trkpt>
      <trkpt lat="50.46166" lon="2.98684">
        <ele>28</ele>
        <time>2025-09-14T15:31:22Z</time>
      </trkpt>
      <trkpt lat="50.46164" lon="2.98685">
        <ele>28</ele>
        <time>2025-09-14T15:31:38Z</time>
      </trkpt>
      <trkpt lat="50.46163" lon="2.98684">
        <ele>28</ele>
        <time>2025-09-14T15:31:54Z</time>
      </trkpt>
      <trkpt lat="50.46163" lon="2.98682">
        <ele>28.1</ele>
        <time>2025-09-14T15:32:14Z</time>
      </trkpt>
      <trkpt lat="50.46163" lon="2.98681">
        <ele>28.1</ele>
        <time>2025-09-14T15:32:33Z</time>
      </trkpt>
      <trkpt lat="50.46163" lon="2.9868">
        <ele>28.1</ele>
        <time>2025-09-14T15:32:50Z</time>
      </trkpt>
      <trkpt lat="50.46163" lon="2.98681">
        <ele>28.1</ele>
        <time>2025-09-14T15:33:13Z</time>
      </trkpt>
      <trkpt lat="50.46163" lon="2.98681">
        <ele>28.1</ele>
        <time>2025-09-14T15:33:28Z</time>
      </trkpt>
      <trkpt lat="50.46163" lon="2.98682">
        <ele>28.1</ele>
        <time>2025-09-14T15:33:46Z</time>
      </trkpt>
      <trkpt lat="50.46162" lon="2.98682">
        <ele>28.1</ele>
        <time>2025-09-14T15:34:04Z</time>
      </trkpt>
      <trkpt lat="50.46162" lon="2.98683">
        <ele>28.1</ele>
        <time>2025-09-14T15:34:24Z</time>
      </trkpt>
      <trkpt lat="50.46163" lon="2.98682">
        <ele>28.1</ele>
        <time>2025-09-14T15:34:39Z</time>
      </trkpt>
      <trkpt lat="50.46163" lon="2.98681">
        <ele>28.1</ele>
        <time>2025-09-14T15:34:53Z</time>
      </trkpt>
      <trkpt lat="50.46163" lon="2.98681">
        <ele>28.1</ele>
        <time>2025-09-14T15:35:10Z</time>
      </trkpt>
      <trkpt lat="50.46163" lon="2.98681">
        <ele>28.1</ele>
        <time>2025-09-14T15:35:27Z</time>
      </trkpt>
      <trkpt lat="50.46164" lon="2.98681">
        <ele>28.1</ele>
        <time>2025-09-14T15:35:44Z</time>
      </trkpt>
      <trkpt lat="50.46164" lon="2.9868">
        <ele>28</ele>
        <time>2025-09-14T15:36:04Z</time>
      </trkpt>
      <trkpt lat="50.46165" lon="2.98679">
        <ele>28</ele>
        <time>2025-09-14T15:36:21Z</time>
      </trkpt>
      <trkpt lat="50.46166" lon="2.98678">
        <ele>28</ele>
        <time>2025-09-14T15:36:41Z</time>
      </trkpt>
      <trkpt lat="50.46167" lon="2.98678">
        <ele>28</ele>
        <time>2025-09-14T15:36:59Z</time>
      </trkpt>
      <trkpt lat="50.46168" lon="2.98676">
        <ele>28</ele>
        <time>2025-09-14T15:37:17Z</time>
      </trkpt>
      <trkpt lat="50.46167" lon="2.98676">
        <ele>28</ele>
        <time>2025-09-14T15:37:35Z</time>
      </trkpt>
      <trkpt lat="50.46167" lon="2.98676">
        <ele>28</ele>
        <time>2025-09-14T15:37:47Z</time>
      </trkpt>
      <trkpt lat="50.46168" lon="2.98676">
        <ele>28</ele>
        <time>2025-09-14T15:38:03Z</time>
      </trkpt>
      <trkpt lat="50.46168" lon="2.98677">
        <ele>28</ele>
        <time>2025-09-14T15:38:17Z</time>
      </trkpt>
      <trkpt lat="50.46168" lon="2.98677">
        <ele>28</ele>
        <time>2025-09-14T15:38:33Z</time>
      </trkpt>
      <trkpt lat="50.46168" lon="2.98676">
        <ele>28</ele>
        <time>2025-09-14T15:38:52Z</time>
      </trkpt>
      <trkpt lat="50.46168" lon="2.98677">
        <ele>28</ele>
        <time>2025-09-14T15:39:15Z</time>
      </trkpt>
      <trkpt lat="50.46167" lon="2.98678">
        <ele>28</ele>
        <time>2025-09-14T15:39:29Z</time>
      </trkpt>
      <trkpt lat="50.46167" lon="2.98678">
        <ele>28</ele>
        <time>2025-09-14T15:39:45Z</time>
      </trkpt>
      <trkpt lat="50.46167" lon="2.98678">
        <ele>28</ele>
        <time>2025-09-14T15:40:04Z</time>
      </trkpt>
      <trkpt lat="50.46166" lon="2.9868">
        <ele>28</ele>
        <time>2025-09-14T15:40:22Z</time>
      </trkpt>
      <trkpt lat="50.46166" lon="2.9868">
        <ele>28</ele>
        <time>2025-09-14T15:40:31Z</time>
      </trkpt>
      <trkpt lat="50.46165" lon="2.9868">
        <ele>28</ele>
        <time>2025-09-14T15:40:47Z</time>
      </trkpt>
      <trkpt lat="50.46164" lon="2.98678">
        <ele>28.1</ele>
        <time>2025-09-14T15:41:04Z</time>
      </trkpt>
      <trkpt lat="50.46164" lon="2.98678">
        <ele>28.1</ele>
        <time>2025-09-14T15:41:18Z</time>
      </trkpt>
      <trkpt lat="50.46163" lon="2.98677">
        <ele>28.1</ele>
        <time>2025-09-14T15:41:35Z</time>
      </trkpt>
      <trkpt lat="50.46162" lon="2.98678">
        <ele>28.1</ele>
        <time>2025-09-14T15:41:51Z</time>
      </trkpt>
      <trkpt lat="50.46162" lon="2.98679">
        <ele>28.1</ele>
        <time>2025-09-14T15:42:11Z</time>
      </trkpt>
      <trkpt lat="50.46162" lon="2.98679">
        <ele>28.1</ele>
        <time>2025-09-14T15:42:29Z</time>
      </trkpt>
      <trkpt lat="50.46162" lon="2.98679">
        <ele>28.1</ele>
        <time>2025-09-14T15:42:50Z</time>
      </trkpt>
      <trkpt lat="50.46162" lon="2.98679">
        <ele>28.1</ele>
        <time>2025-09-14T15:43:09Z</time>
      </trkpt>
      <trkpt lat="50.46162" lon="2.98679">
        <ele>28.1</ele>
        <time>2025-09-14T15:43:26Z</time>
      </trkpt>
      <trkpt lat="50.46162" lon="2.98678">
        <ele>28.1</ele>
        <time>2025-09-14T15:43:43Z</time>
      </trkpt>
      <trkpt lat="50.46162" lon="2.98678">
        <ele>28.1</ele>
        <time>2025-09-14T15:44:00Z</time>
      </trkpt>
      <trkpt lat="50.46161" lon="2.98677">
        <ele>28.1</ele>
        <time>2025-09-14T15:44:15Z</time>
      </trkpt>
      <trkpt lat="50.46161" lon="2.98677">
        <ele>28.1</ele>
        <time>2025-09-14T15:44:31Z</time>
      </trkpt>
      <trkpt lat="50.46161" lon="2.98676">
        <ele>28.1</ele>
        <time>2025-09-14T15:44:44Z</time>
      </trkpt>
      <trkpt lat="50.4616" lon="2.98675">
        <ele>28.2</ele>
        <time>2025-09-14T15:44:57Z</time>
      </trkpt>
      <trkpt lat="50.46161" lon="2.98674">
        <ele>28.2</ele>
        <time>2025-09-14T15:45:08Z</time>
      </trkpt>
      <trkpt lat="50.46161" lon="2.98674">
        <ele>28.2</ele>
        <time>2025-09-14T15:45:24Z</time>
      </trkpt>
      <trkpt lat="50.4616" lon="2.98674">
        <ele>28.2</ele>
        <time>2025-09-14T15:45:37Z</time>
      </trkpt>
      <trkpt lat="50.4616" lon="2.98674">
        <ele>28.2</ele>
        <time>2025-09-14T15:45:59Z</time>
      </trkpt>
      <trkpt lat="50.46159" lon="2.98673">
        <ele>28.2</ele>
        <time>2025-09-14T15:46:18Z</time>
      </trkpt>
      <trkpt lat="50.4616" lon="2.98673">
        <ele>28.2</ele>
        <time>2025-09-14T15:46:36Z</time>
      </trkpt>
      <trkpt lat="50.4616" lon="2.98673">
        <ele>28.2</ele>
        <time>2025-09-14T15:46:56Z</time>
      </trkpt>
      <trkpt lat="50.4616" lon="2.98672">
        <ele>28.2</ele>
        <time>2025-09-14T15:47:14Z</time>
      </trkpt>
      <trkpt lat="50.46162" lon="2.98672">
        <ele>28.1</ele>
        <time>2025-09-14T15:47:34Z</time>
      </trkpt>
      <trkpt lat="50.46163" lon="2.98673">
        <ele>28.1</ele>
        <time>2025-09-14T15:47:51Z</time>
      </trkpt>
      <trkpt lat="50.46162" lon="2.98675">
        <ele>28.1</ele>
        <time>2025-09-14T15:48:07Z</time>
      </trkpt>
      <trkpt lat="50.46162" lon="2.98675">
        <ele>28.1</ele>
        <time>2025-09-14T15:48:22Z</time>
      </trkpt>
      <trkpt lat="50.46163" lon="2.98675">
        <ele>28.1</ele>
        <time>2025-09-14T15:48:38Z</time>
      </trkpt>
      <trkpt lat="50.46163" lon="2.98675">
        <ele>28.1</ele>
        <time>2025-09-14T15:48:53Z</time>
      </trkpt>
      <trkpt lat="50.46163" lon="2.98674">
        <ele>28.1</ele>
        <time>2025-09-14T15:49:09Z</time>
      </trkpt>
      <trkpt lat="50.46163" lon="2.98675">
        <ele>28.1</ele>
        <time>2025-09-14T15:49:26Z</time>
      </trkpt>
      <trkpt lat="50.46161" lon="2.98676">
        <ele>28.1</ele>
        <time>2025-09-14T15:49:43Z</time>
      </trkpt>
      <trkpt lat="50.46161" lon="2.98677">
        <ele>28.1</ele>
        <time>2025-09-14T15:49:57Z</time>
      </trkpt>
      <trkpt lat="50.46161" lon="2.98677">
        <ele>28.1</ele>
        <time>2025-09-14T15:50:13Z</time>
      </trkpt>
      <trkpt lat="50.4616" lon="2.98678">
        <ele>28.1</ele>
        <time>2025-09-14T15:50:31Z</time>
      </trkpt>
      <trkpt lat="50.4616" lon="2.98678">
        <ele>28.1</ele>
        <time>2025-09-14T15:50:48Z</time>
      </trkpt>
      <trkpt lat="50.4616" lon="2.98681">
        <ele>28.1</ele>
        <time>2025-09-14T15:51:07Z</time>
      </trkpt>
      <trkpt lat="50.4616" lon="2.98681">
        <ele>28.1</ele>
        <time>2025-09-14T15:51:25Z</time>
      </trkpt>
      <trkpt lat="50.46161" lon="2.98682">
        <ele>28.1</ele>
        <time>2025-09-14T15:51:44Z</time>
      </trkpt>
      <trkpt lat="50.4616" lon="2.98681">
        <ele>28.1</ele>
        <time>2025-09-14T15:52:05Z</time>
      </trkpt>
      <trkpt lat="50.46159" lon="2.9868">
        <ele>28.1</ele>
        <time>2025-09-14T15:52:24Z</time>
      </trkpt>
      <trkpt lat="50.46159" lon="2.9868">
        <ele>28.1</ele>
        <time>2025-09-14T15:52:44Z</time>
      </trkpt>
      <trkpt lat="50.46159" lon="2.98681">
        <ele>28.1</ele>
        <time>2025-09-14T15:53:05Z</time>
      </trkpt>
      <trkpt lat="50.46159" lon="2.98681">
        <ele>28.1</ele>
        <time>2025-09-14T15:53:21Z</time>
      </trkpt>
      <trkpt lat="50.46158" lon="2.98682">
        <ele>28.1</ele>
        <time>2025-09-14T15:53:43Z</time>
      </trkpt>
      <trkpt lat="50.46158" lon="2.98682">
        <ele>28.1</ele>
        <time>2025-09-14T15:53:53Z</time>
      </trkpt>
      <trkpt lat="50.46158" lon="2.98682">
        <ele>28.1</ele>
        <time>2025-09-14T15:54:14Z</time>
      </trkpt>
      <trkpt lat="50.46159" lon="2.98682">
        <ele>28.1</ele>
        <time>2025-09-14T15:54:33Z</time>
      </trkpt>
      <trkpt lat="50.4616" lon="2.98683">
        <ele>28.1</ele>
        <time>2025-09-14T15:54:49Z</time>
      </trkpt>
      <trkpt lat="50.4616" lon="2.98683">
        <ele>28.1</ele>
        <time>2025-09-14T15:55:09Z</time>
      </trkpt>
      <trkpt lat="50.46161" lon="2.98683">
        <ele>28.1</ele>
        <time>2025-09-14T15:55:28Z</time>
      </trkpt>
      <trkpt lat="50.46161" lon="2.98683">
        <ele>28.1</ele>
        <time>2025-09-14T15:55:45Z</time>
      </trkpt>
      <trkpt lat="50.46161" lon="2.98683">
        <ele>28.1</ele>
        <time>2025-09-14T15:56:02Z</time>
      </trkpt>
      <trkpt lat="50.46162" lon="2.98682">
        <ele>28.1</ele>
        <time>2025-09-14T15:56:22Z</time>
      </trkpt>
      <trkpt lat="50.46162" lon="2.98682">
        <ele>28.1</ele>
        <time>2025-09-14T15:56:43Z</time>
      </trkpt>
      <trkpt lat="50.46162" lon="2.98682">
        <ele>28.1</ele>
        <time>2025-09-14T15:57:01Z</time>
      </trkpt>
      <trkpt lat="50.46162" lon="2.98682">
        <ele>28.1</ele>
        <time>2025-09-14T15:57:19Z</time>
      </trkpt>
      <trkpt lat="50.46162" lon="2.98682">
        <ele>28.1</ele>
        <time>2025-09-14T15:57:38Z</time>
      </trkpt>
      <trkpt lat="50.46162" lon="2.98682">
        <ele>28.1</ele>
        <time>2025-09-14T15:57:58Z</time>
      </trkpt>
      <trkpt lat="50.46162" lon="2.98682">
        <ele>28.1</ele>
        <time>2025-09-14T15:58:17Z</time>
      </trkpt>
      <trkpt lat="50.46162" lon="2.98682">
        <ele>28.1</ele>
        <time>2025-09-14T15:58:34Z</time>
      </trkpt>
      <trkpt lat="50.46162" lon="2.98682">
        <ele>28.1</ele>
        <time>2025-09-14T15:58:50Z</time>
      </trkpt>
      <trkpt lat="50.46163" lon="2.98682">
        <ele>28.1</ele>
        <time>2025-09-14T15:59:09Z</time>
      </trkpt>
      <trkpt lat="50.46163" lon="2.98682">
        <ele>28.1</ele>
        <time>2025-09-14T15:59:26Z</time>
      </trkpt>
      <trkpt lat="50.46162" lon="2.98683">
        <ele>28.1</ele>
        <time>2025-09-14T15:59:40Z</time>
      </trkpt>
      <trkpt lat="50.46162" lon="2.98683">
        <ele>28.1</ele>
        <time>2025-09-14T15:59:59Z</time>
      </trkpt>
      <trkpt lat="50.46161" lon="2.98682">
        <ele>28.1</ele>
        <time>2025-09-14T16:00:13Z</time>
      </trkpt>
      <trkpt lat="50.46161" lon="2.98682">
        <ele>28.1</ele>
        <time>2025-09-14T16:00:28Z</time>
      </trkpt>
      <trkpt lat="50.46161" lon="2.98682">
        <ele>28.1</ele>
        <time>2025-09-14T16:00:43Z</time>
      </trkpt>
      <trkpt lat="50.46161" lon="2.98683">
        <ele>28.1</ele>
        <time>2025-09-14T16:01:04Z</time>
      </trkpt>
      <trkpt lat="50.46161" lon="2.98683">
        <ele>28.1</ele>
        <time>2025-09-14T16:01:21Z</time>
      </trkpt>
      <trkpt lat="50.46161" lon="2.98683">
        <ele>28.1</ele>
        <time>2025-09-14T16:01:36Z</time>
      </trkpt>
      <trkpt lat="50.46161" lon="2.98684">
        <ele>28.1</ele>
        <time>2025-09-14T16:01:56Z</time>
      </trkpt>
      <trkpt lat="50.46161" lon="2.98684">
        <ele>28.1</ele>
        <time>2025-09-14T16:02:14Z</time>
      </trkpt>
      <trkpt lat="50.46161" lon="2.98684">
        <ele>28.1</ele>
        <time>2025-09-14T16:02:32Z</time>
      </trkpt>
      <trkpt lat="50.46161" lon="2.98684">
        <ele>28.1</ele>
        <time>2025-09-14T16:02:53Z</time>
      </trkpt>
      <trkpt lat="50.4616" lon="2.98685">
        <ele>28.1</ele>
        <time>2025-09-14T16:03:17Z</time>
      </trkpt>
      <trkpt lat="50.4616" lon="2.98685">
        <ele>28.1</ele>
        <time>2025-09-14T16:03:33Z</time>
      </trkpt>
      <trkpt lat="50.4616" lon="2.98685">
        <ele>28.1</ele>
        <time>2025-09-14T16:03:51Z</time>
      </trkpt>
      <trkpt lat="50.4616" lon="2.98685">
        <ele>28.1</ele>
        <time>2025-09-14T16:04:11Z</time>
      </trkpt>
      <trkpt lat="50.46161" lon="2.98684">
        <ele>28.1</ele>
        <time>2025-09-14T16:04:30Z</time>
      </trkpt>
      <trkpt lat="50.46161" lon="2.98684">
        <ele>28.1</ele>
        <time>2025-09-14T16:04:44Z</time>
      </trkpt>
      <trkpt lat="50.46161" lon="2.98685">
        <ele>28.1</ele>
        <time>2025-09-14T16:05:00Z</time>
      </trkpt>
      <trkpt lat="50.46161" lon="2.98685">
        <ele>28.1</ele>
        <time>2025-09-14T16:05:15Z</time>
      </trkpt>
      <trkpt lat="50.46161" lon="2.98685">
        <ele>28.1</ele>
        <time>2025-09-14T16:05:30Z</time>
      </trkpt>
      <trkpt lat="50.46162" lon="2.98683">
        <ele>28.1</ele>
        <time>2025-09-14T16:05:44Z</time>
      </trkpt>
      <trkpt lat="50.46163" lon="2.98682">
        <ele>28.1</ele>
        <time>2025-09-14T16:06:03Z</time>
      </trkpt>
      <trkpt lat="50.46164" lon="2.98682">
        <ele>28</ele>
        <time>2025-09-14T16:06:18Z</time>
      </trkpt>
      <trkpt lat="50.46164" lon="2.98681">
        <ele>28.1</ele>
        <time>2025-09-14T16:06:38Z</time>
      </trkpt>
      <trkpt lat="50.46164" lon="2.98681">
        <ele>28.1</ele>
        <time>2025-09-14T16:06:57Z</time>
      </trkpt>
      <trkpt lat="50.46164" lon="2.98681">
        <ele>28</ele>
        <time>2025-09-14T16:07:14Z</time>
      </trkpt>
      <trkpt lat="50.46164" lon="2.98682">
        <ele>28</ele>
        <time>2025-09-14T16:07:30Z</time>
      </trkpt>
      <trkpt lat="50.46165" lon="2.98682">
        <ele>28</ele>
        <time>2025-09-14T16:07:49Z</time>
      </trkpt>
      <trkpt lat="50.46166" lon="2.98683">
        <ele>28</ele>
        <time>2025-09-14T16:08:04Z</time>
      </trkpt>
      <trkpt lat="50.46166" lon="2.98682">
        <ele>28</ele>
        <time>2025-09-14T16:08:23Z</time>
      </trkpt>
      <trkpt lat="50.46166" lon="2.98682">
        <ele>28</ele>
        <time>2025-09-14T16:08:38Z</time>
      </trkpt>
      <trkpt lat="50.46166" lon="2.98683">
        <ele>28</ele>
        <time>2025-09-14T16:08:57Z</time>
      </trkpt>
      <trkpt lat="50.46165" lon="2.98683">
        <ele>28</ele>
        <time>2025-09-14T16:09:09Z</time>
      </trkpt>
      <trkpt lat="50.46165" lon="2.98683">
        <ele>28</ele>
        <time>2025-09-14T16:09:33Z</time>
      </trkpt>
      <trkpt lat="50.46166" lon="2.98685">
        <ele>28</ele>
        <time>2025-09-14T16:09:51Z</time>
      </trkpt>
      <trkpt lat="50.46167" lon="2.98685">
        <ele>28</ele>
        <time>2025-09-14T16:10:09Z</time>
      </trkpt>
      <trkpt lat="50.46168" lon="2.98685">
        <ele>28</ele>
        <time>2025-09-14T16:10:26Z</time>
      </trkpt>
      <trkpt lat="50.46169" lon="2.98686">
        <ele>28</ele>
        <time>2025-09-14T16:10:39Z</time>
      </trkpt>
      <trkpt lat="50.46169" lon="2.98686">
        <ele>28</ele>
        <time>2025-09-14T16:10:51Z</time>
      </trkpt>
      <trkpt lat="50.4617" lon="2.98686">
        <ele>28</ele>
        <time>2025-09-14T16:11:10Z</time>
      </trkpt>
      <trkpt lat="50.46171" lon="2.98686">
        <ele>28</ele>
        <time>2025-09-14T16:11:28Z</time>
      </trkpt>
      <trkpt lat="50.46171" lon="2.98685">
        <ele>28</ele>
        <time>2025-09-14T16:11:42Z</time>
      </trkpt>
      <trkpt lat="50.46171" lon="2.98685">
        <ele>28</ele>
        <time>2025-09-14T16:11:57Z</time>
      </trkpt>
      <trkpt lat="50.46171" lon="2.98686">
        <ele>28</ele>
        <time>2025-09-14T16:12:13Z</time>
      </trkpt>
      <trkpt lat="50.46172" lon="2.98686">
        <ele>28</ele>
        <time>2025-09-14T16:12:30Z</time>
      </trkpt>
      <trkpt lat="50.46172" lon="2.98686">
        <ele>28</ele>
        <time>2025-09-14T16:12:46Z</time>
      </trkpt>
      <trkpt lat="50.46172" lon="2.98685">
        <ele>28</ele>
        <time>2025-09-14T16:12:58Z</time>
      </trkpt>
      <trkpt lat="50.46172" lon="2.98685">
        <ele>28</ele>
        <time>2025-09-14T16:13:18Z</time>
      </trkpt>
      <trkpt lat="50.46172" lon="2.98684">
        <ele>28</ele>
        <time>2025-09-14T16:13:36Z</time>
      </trkpt>
      <trkpt lat="50.46172" lon="2.98684">
        <ele>28</ele>
        <time>2025-09-14T16:13:55Z</time>
      </trkpt>
      <trkpt lat="50.46172" lon="2.98683">
        <ele>28</ele>
        <time>2025-09-14T16:14:16Z</time>
      </trkpt>
      <trkpt lat="50.46173" lon="2.98682">
        <ele>28</ele>
        <time>2025-09-14T16:14:36Z</time>
      </trkpt>
      <trkpt lat="50.46173" lon="2.98682">
        <ele>28</ele>
        <time>2025-09-14T16:14:53Z</time>
      </trkpt>
      <trkpt lat="50.46173" lon="2.98681">
        <ele>28</ele>
        <time>2025-09-14T16:15:10Z</time>
      </trkpt>
      <trkpt lat="50.46172" lon="2.9868">
        <ele>28</ele>
        <time>2025-09-14T16:15:19Z</time>
      </trkpt>
      <trkpt lat="50.4617" lon="2.98679">
        <ele>28</ele>
        <time>2025-09-14T16:15:29Z</time>
      </trkpt>
      <trkpt lat="50.46169" lon="2.98679">
        <ele>28</ele>
        <time>2025-09-14T16:15:45Z</time>
      </trkpt>
      <trkpt lat="50.46169" lon="2.98679">
        <ele>28</ele>
        <time>2025-09-14T16:15:53Z</time>
      </trkpt>
      <trkpt lat="50.46169" lon="2.98678">
        <ele>28</ele>
        <time>2025-09-14T16:16:01Z</time>
      </trkpt>
      <trkpt lat="50.46169" lon="2.98679">
        <ele>28</ele>
        <time>2025-09-14T16:16:11Z</time>
      </trkpt>
      <trkpt lat="50.4617" lon="2.98679">
        <ele>28</ele>
        <time>2025-09-14T16:16:18Z</time>
      </trkpt>
      <trkpt lat="50.4617" lon="2.98679">
        <ele>28</ele>
        <time>2025-09-14T16:16:23Z</time>
      </trkpt>
      <trkpt lat="50.46167" lon="2.98683">
        <ele>28</ele>
        <time>2025-09-14T16:16:29Z</time>
      </trkpt>
      <trkpt lat="50.46166" lon="2.98682">
        <ele>28</ele>
        <time>2025-09-14T16:16:35Z</time>
      </trkpt>
      <trkpt lat="50.46165" lon="2.98684">
        <ele>28</ele>
        <time>2025-09-14T16:16:45Z</time>
      </trkpt>
      <trkpt lat="50.46166" lon="2.98685">
        <ele>28</ele>
        <time>2025-09-14T16:16:56Z</time>
      </trkpt>
      <trkpt lat="50.46167" lon="2.98685">
        <ele>28</ele>
        <time>2025-09-14T16:17:04Z</time>
      </trkpt>
      <trkpt lat="50.46168" lon="2.98685">
        <ele>28</ele>
        <time>2025-09-14T16:17:11Z</time>
      </trkpt>
      <trkpt lat="50.46168" lon="2.98684">
        <ele>28</ele>
        <time>2025-09-14T16:17:19Z</time>
      </trkpt>
      <trkpt lat="50.46169" lon="2.98685">
        <ele>28</ele>
        <time>2025-09-14T16:17:25Z</time>
      </trkpt>
      <trkpt lat="50.46169" lon="2.98684">
        <ele>28</ele>
        <time>2025-09-14T16:17:34Z</time>
      </trkpt>
      <trkpt lat="50.46168" lon="2.98684">
        <ele>28</ele>
        <time>2025-09-14T16:17:52Z</time>
      </trkpt>
      <trkpt lat="50.46169" lon="2.98685">
        <ele>28</ele>
        <time>2025-09-14T16:18:04Z</time>
      </trkpt>
      <trkpt lat="50.46169" lon="2.98685">
        <ele>28</ele>
        <time>2025-09-14T16:18:11Z</time>
      </trkpt>
      <trkpt lat="50.46169" lon="2.98685">
        <ele>28</ele>
        <time>2025-09-14T16:18:18Z</time>
      </trkpt>
      <trkpt lat="50.46168" lon="2.98686">
        <ele>28</ele>
        <time>2025-09-14T16:18:29Z</time>
      </trkpt>
      <trkpt lat="50.46168" lon="2.98687">
        <ele>28</ele>
        <time>2025-09-14T16:18:37Z</time>
      </trkpt>
      <trkpt lat="50.46168" lon="2.98688">
        <ele>28</ele>
        <time>2025-09-14T16:18:45Z</time>
      </trkpt>
      <trkpt lat="50.46168" lon="2.98693">
        <ele>28</ele>
        <time>2025-09-14T16:18:52Z</time>
      </trkpt>
      <trkpt lat="50.46168" lon="2.98695">
        <ele>28</ele>
        <time>2025-09-14T16:18:58Z</time>
      </trkpt>
      <trkpt lat="50.46167" lon="2.98699">
        <ele>28</ele>
        <time>2025-09-14T16:19:05Z</time>
      </trkpt>
      <trkpt lat="50.46161" lon="2.98716">
        <ele>28</ele>
        <time>2025-09-14T16:19:14Z</time>
      </trkpt>
      <trkpt lat="50.4616" lon="2.98722">
        <ele>28</ele>
        <time>2025-09-14T16:19:17Z</time>
      </trkpt>
      <trkpt lat="50.46156" lon="2.98737">
        <ele>28</ele>
        <time>2025-09-14T16:19:25Z</time>
      </trkpt>
      <trkpt lat="50.46155" lon="2.9874">
        <ele>28</ele>
        <time>2025-09-14T16:19:29Z</time>
      </trkpt>
      <trkpt lat="50.46152" lon="2.98747">
        <ele>28</ele>
        <time>2025-09-14T16:19:35Z</time>
      </trkpt>
      <trkpt lat="50.4615" lon="2.98749">
        <ele>28</ele>
        <time>2025-09-14T16:19:41Z</time>
      </trkpt>
      <trkpt lat="50.46149" lon="2.98753">
        <ele>28</ele>
        <time>2025-09-14T16:19:45Z</time>
      </trkpt>
      <trkpt lat="50.46148" lon="2.98769">
        <ele>28</ele>
        <time>2025-09-14T16:19:54Z</time>
      </trkpt>
      <trkpt lat="50.46146" lon="2.98779">
        <ele>28</ele>
        <time>2025-09-14T16:20:01Z</time>
      </trkpt>
      <trkpt lat="50.46144" lon="2.98791">
        <ele>28</ele>
        <time>2025-09-14T16:20:10Z</time>
      </trkpt>
      <trkpt lat="50.46143" lon="2.98796">
        <ele>28</ele>
        <time>2025-09-14T16:20:13Z</time>
      </trkpt>
      <trkpt lat="50.46143" lon="2.98802">
        <ele>28</ele>
        <time>2025-09-14T16:20:16Z</time>
      </trkpt>
      <trkpt lat="50.46143" lon="2.98805">
        <ele>28</ele>
        <time>2025-09-14T16:20:18Z</time>
      </trkpt>
      <trkpt lat="50.46142" lon="2.98814">
        <ele>28</ele>
        <time>2025-09-14T16:20:25Z</time>
      </trkpt>
      <trkpt lat="50.46142" lon="2.9882">
        <ele>28</ele>
        <time>2025-09-14T16:20:29Z</time>
      </trkpt>
      <trkpt lat="50.46141" lon="2.98825">
        <ele>28</ele>
        <time>2025-09-14T16:20:32Z</time>
      </trkpt>
      <trkpt lat="50.46143" lon="2.98832">
        <ele>28</ele>
        <time>2025-09-14T16:20:37Z</time>
      </trkpt>
      <trkpt lat="50.46145" lon="2.98839">
        <ele>28</ele>
        <time>2025-09-14T16:20:43Z</time>
      </trkpt>
      <trkpt lat="50.46147" lon="2.98844">
        <ele>28</ele>
        <time>2025-09-14T16:20:48Z</time>
      </trkpt>
      <trkpt lat="50.46149" lon="2.98844">
        <ele>28</ele>
        <time>2025-09-14T16:20:56Z</time>
      </trkpt>
      <trkpt lat="50.46148" lon="2.98844">
        <ele>28</ele>
        <time>2025-09-14T16:21:04Z</time>
      </trkpt>
      <trkpt lat="50.46148" lon="2.98844">
        <ele>28</ele>
        <time>2025-09-14T16:21:12Z</time>
      </trkpt>
      <trkpt lat="50.46147" lon="2.98844">
        <ele>28</ele>
        <time>2025-09-14T16:21:19Z</time>
      </trkpt>
      <trkpt lat="50.46146" lon="2.98847">
        <ele>28</ele>
        <time>2025-09-14T16:21:26Z</time>
      </trkpt>
      <trkpt lat="50.46144" lon="2.98849">
        <ele>28</ele>
        <time>2025-09-14T16:21:40Z</time>
      </trkpt>
      <trkpt lat="50.46144" lon="2.9885">
        <ele>28</ele>
        <time>2025-09-14T16:21:47Z</time>
      </trkpt>
      <trkpt lat="50.46139" lon="2.98853">
        <ele>28</ele>
        <time>2025-09-14T16:21:55Z</time>
      </trkpt>
      <trkpt lat="50.46131" lon="2.98856">
        <ele>28</ele>
        <time>2025-09-14T16:22:03Z</time>
      </trkpt>
      <trkpt lat="50.46125" lon="2.98861">
        <ele>28</ele>
        <time>2025-09-14T16:22:10Z</time>
      </trkpt>
      <trkpt lat="50.46121" lon="2.98868">
        <ele>27.8</ele>
        <time>2025-09-14T16:22:16Z</time>
      </trkpt>
      <trkpt lat="50.46113" lon="2.98867">
        <ele>27.8</ele>
        <time>2025-09-14T16:22:23Z</time>
      </trkpt>
      <trkpt lat="50.46105" lon="2.98861">
        <ele>28</ele>
        <time>2025-09-14T16:22:32Z</time>
      </trkpt>
      <trkpt lat="50.46096" lon="2.9886">
        <ele>28</ele>
        <time>2025-09-14T16:22:40Z</time>
      </trkpt>
      <trkpt lat="50.46087" lon="2.98855">
        <ele>27.8</ele>
        <time>2025-09-14T16:22:49Z</time>
      </trkpt>
      <trkpt lat="50.4608" lon="2.98852">
        <ele>27.6</ele>
        <time>2025-09-14T16:22:55Z</time>
      </trkpt>
      <trkpt lat="50.46072" lon="2.98846">
        <ele>27.5</ele>
        <time>2025-09-14T16:23:03Z</time>
      </trkpt>
      <trkpt lat="50.4607" lon="2.98845">
        <ele>27.5</ele>
        <time>2025-09-14T16:23:05Z</time>
      </trkpt>
      <trkpt lat="50.46066" lon="2.98842">
        <ele>27.5</ele>
        <time>2025-09-14T16:23:08Z</time>
      </trkpt>
      <trkpt lat="50.46059" lon="2.9884">
        <ele>27.7</ele>
        <time>2025-09-14T16:23:15Z</time>
      </trkpt>
      <trkpt lat="50.46051" lon="2.98835">
        <ele>27.9</ele>
        <time>2025-09-14T16:23:22Z</time>
      </trkpt>
      <trkpt lat="50.46045" lon="2.98832">
        <ele>28</ele>
        <time>2025-09-14T16:23:28Z</time>
      </trkpt>
      <trkpt lat="50.46034" lon="2.98827">
        <ele>28</ele>
        <time>2025-09-14T16:23:37Z</time>
      </trkpt>
      <trkpt lat="50.46027" lon="2.98823">
        <ele>28</ele>
        <time>2025-09-14T16:23:43Z</time>
      </trkpt>
      <trkpt lat="50.46023" lon="2.98823">
        <ele>27.9</ele>
        <time>2025-09-14T16:23:47Z</time>
      </trkpt>
      <trkpt lat="50.46015" lon="2.98818">
        <ele>27.8</ele>
        <time>2025-09-14T16:23:55Z</time>
      </trkpt>
      <trkpt lat="50.46007" lon="2.98814">
        <ele>27.8</ele>
        <time>2025-09-14T16:24:03Z</time>
      </trkpt>
      <trkpt lat="50.46002" lon="2.98811">
        <ele>27.8</ele>
        <time>2025-09-14T16:24:08Z</time>
      </trkpt>
      <trkpt lat="50.45999" lon="2.98803">
        <ele>28</ele>
        <time>2025-09-14T16:24:15Z</time>
      </trkpt>
      <trkpt lat="50.45999" lon="2.988">
        <ele>28</ele>
        <time>2025-09-14T16:24:18Z</time>
      </trkpt>
      <trkpt lat="50.46" lon="2.98795">
        <ele>28</ele>
        <time>2025-09-14T16:24:25Z</time>
      </trkpt>
      <trkpt lat="50.45998" lon="2.98792">
        <ele>28</ele>
        <time>2025-09-14T16:24:33Z</time>
      </trkpt>
      <trkpt lat="50.45994" lon="2.98791">
        <ele>28</ele>
        <time>2025-09-14T16:24:40Z</time>
      </trkpt>
      <trkpt lat="50.45994" lon="2.98791">
        <ele>28</ele>
        <time>2025-09-14T16:24:50Z</time>
      </trkpt>
      <trkpt lat="50.45992" lon="2.98791">
        <ele>28</ele>
        <time>2025-09-14T16:24:57Z</time>
      </trkpt>
      <trkpt lat="50.45991" lon="2.98792">
        <ele>28</ele>
        <time>2025-09-14T16:25:04Z</time>
      </trkpt>
      <trkpt lat="50.45989" lon="2.98793">
        <ele>28</ele>
        <time>2025-09-14T16:25:20Z</time>
      </trkpt>
      <trkpt lat="50.45989" lon="2.98794">
        <ele>28</ele>
        <time>2025-09-14T16:25:32Z</time>
      </trkpt>
      <trkpt lat="50.45989" lon="2.98794">
        <ele>28</ele>
        <time>2025-09-14T16:25:50Z</time>
      </trkpt>
      <trkpt lat="50.45989" lon="2.98794">
        <ele>28</ele>
        <time>2025-09-14T16:26:03Z</time>
      </trkpt>
      <trkpt lat="50.45989" lon="2.98794">
        <ele>28</ele>
        <time>2025-09-14T16:26:17Z</time>
      </trkpt>
      <trkpt lat="50.45988" lon="2.98794">
        <ele>28</ele>
        <time>2025-09-14T16:26:26Z</time>
      </trkpt>
      <trkpt lat="50.45987" lon="2.98794">
        <ele>28</ele>
        <time>2025-09-14T16:26:40Z</time>
      </trkpt>
    </trkseg>
  </trk>
</gpx>